Observation data for Castolon 1NW BBNP on 10/17/2020      Previous  Date  Next       Current Mesonet Observations  Soil Data  Daily Summary Page  Observations in Plain Language
KCA2 170500Z 31004KT 20/05 A3013 RMK A01 T02000049  RH  037%=      5-min Rain = 0
KCA2 170501Z 31003KT 20/05 A3013 RMK A01 T02000049  RH  037%=      5-min Rain = 0
KCA2 170502Z 32003KT 20/05 A3013 RMK A01 T02000049  RH  037%=      5-min Rain = 0
KCA2 170503Z 32004KT 20/05 A3013 RMK A01 T02000049  RH  037%=      5-min Rain = 0
KCA2 170504Z 31003KT 20/05 A3013 RMK A01 T02000049  RH  037%=      5-min Rain = 0
KCA2 170505Z 32004KT 20/05 A3013 RMK A01 T02000049  RH  037%=      5-min Rain = 0
KCA2 170506Z 30003KT 20/05 A3013 RMK A01 T02000049  RH  037%=      5-min Rain = 0
KCA2 170507Z 31004KT 20/05 A3013 RMK A01 T02000049  RH  037%=      5-min Rain = 0
KCA2 170508Z 32003KT 20/05 A3013 RMK A01 T02000049  RH  037%=      5-min Rain = 0
KCA2 170509Z 34003KT 20/05 A3013 RMK A01 T02000048  RH  037%=      5-min Rain = 0
KCA2 170510Z 35003KT 20/05 A3013 RMK A01 T01990047  RH  037%=      5-min Rain = 0
KCA2 170511Z 35003KT 20/05 A3013 RMK A01 T01980047  RH  037%=      5-min Rain = 0
KCA2 170512Z 35003KT 20/05 A3013 RMK A01 T01980048  RH  037%=      5-min Rain = 0
KCA2 170513Z 35003KT 20/05 A3013 RMK A01 T01970048  RH  037%=      5-min Rain = 0
KCA2 170514Z 35004KT 20/05 A3013 RMK A01 T01970048  RH  037%=      5-min Rain = 0
KCA2 170515Z 34003KT 20/05 A3013 RMK A01 T01970048  RH  037%=      5-min Rain = 0
KCA2 170516Z 36003KT 20/05 A3013 RMK A01 T01970048  RH  037%=      5-min Rain = 0
KCA2 170517Z 36004KT 20/05 A3013 RMK A01 T01970048  RH  038%=      5-min Rain = 0
KCA2 170518Z 36004KT 20/05 A3013 RMK A01 T01970048  RH  038%=      5-min Rain = 0
KCA2 170519Z 35004KT 20/05 A3013 RMK A01 T01960048  RH  038%=      5-min Rain = 0
KCA2 170520Z 36004KT 20/05 A3013 RMK A01 T01960048  RH  038%=      5-min Rain = 0
KCA2 170521Z 34005KT 20/05 A3013 RMK A01 T01960048  RH  038%=      5-min Rain = 0
KCA2 170522Z 34005KT 20/05 A3013 RMK A01 T01960048  RH  038%=      5-min Rain = 0
KCA2 170523Z 33006KT 20/05 A3013 RMK A01 T01970049  RH  038%=      5-min Rain = 0
KCA2 170524Z 32006KT 20/05 A3013 RMK A01 T01980050  RH  038%=      5-min Rain = 0
KCA2 170525Z 32006KT 20/05 A3013 RMK A01 T02000050  RH  037%=      5-min Rain = 0
KCA2 170526Z 32006KT 20/05 A3013 RMK A01 T02000050  RH  037%=      5-min Rain = 0
KCA2 170527Z 32007KT 20/05 A3013 RMK A01 T02010049  RH  037%=      5-min Rain = 0
KCA2 170528Z 32006KT 20/05 A3013 RMK A01 T02000049  RH  037%=      5-min Rain = 0
KCA2 170529Z 31005KT 20/05 A3013 RMK A01 T02010049  RH  037%=      5-min Rain = 0
KCA2 170530Z 31006KT 20/05 A3013 RMK A01 T02000049  RH  037%=      5-min Rain = 0
KCA2 170531Z 31006KT 20/05 A3013 RMK A01 T01990049  RH  037%=      5-min Rain = 0
KCA2 170532Z 31005KT 20/05 A3013 RMK A01 T01980048  RH  037%=      5-min Rain = 0
KCA2 170533Z 32005KT 20/05 A3013 RMK A01 T01980048  RH  037%=      5-min Rain = 0
KCA2 170534Z 32006KT 20/05 A3013 RMK A01 T01970048  RH  038%=      5-min Rain = 0
KCA2 170535Z 32006KT 20/05 A3013 RMK A01 T01960049  RH  038%=      5-min Rain = 0
KCA2 170536Z 32006KT 20/05 A3013 RMK A01 T01960048  RH  038%=      5-min Rain = 0
KCA2 170537Z 32006KT 20/05 A3013 RMK A01 T01950048  RH  038%=      5-min Rain = 0
KCA2 170538Z 32007KT 19/05 A3012 RMK A01 T01940047  RH  038%=      5-min Rain = 0
KCA2 170539Z 32007KT 19/05 A3012 RMK A01 T01940048  RH  038%=      5-min Rain = 0
KCA2 170540Z 32007KT 19/05 A3012 RMK A01 T01940048  RH  038%=      5-min Rain = 0
KCA2 170541Z 32007KT 19/05 A3013 RMK A01 T01940048  RH  038%=      5-min Rain = 0
KCA2 170542Z 32006KT 19/05 A3013 RMK A01 T01940048  RH  038%=      5-min Rain = 0
KCA2 170543Z 32007KT 19/05 A3013 RMK A01 T01940048  RH  038%=      5-min Rain = 0
KCA2 170544Z 32006KT 19/05 A3013 RMK A01 T01930048  RH  038%=      5-min Rain = 0
KCA2 170545Z 32005KT 19/05 A3013 RMK A01 T01930048  RH  038%=      5-min Rain = 0
KCA2 170546Z 33004KT 19/05 A3013 RMK A01 T01930048  RH  038%=      5-min Rain = 0
KCA2 170547Z 33004KT 19/05 A3013 RMK A01 T01940048  RH  038%=      5-min Rain = 0
KCA2 170548Z 33003KT 19/05 A3013 RMK A01 T01940048  RH  038%=      5-min Rain = 0
KCA2 170549Z 33004KT 19/05 A3013 RMK A01 T01930048  RH  038%=      5-min Rain = 0
KCA2 170550Z 32003KT 19/05 A3013 RMK A01 T01930048  RH  038%=      5-min Rain = 0
KCA2 170551Z 32003KT 19/05 A3013 RMK A01 T01930048  RH  038%=      5-min Rain = 0
KCA2 170552Z 32003KT 19/05 A3013 RMK A01 T01920048  RH  038%=      5-min Rain = 0
KCA2 170553Z 31003KT 19/05 A3013 RMK A01 T01920047  RH  039%=      5-min Rain = 0
KCA2 170554Z 31004KT 19/05 A3013 RMK A01 T01910047  RH  039%=      5-min Rain = 0
KCA2 170555Z 31003KT 19/05 A3013 RMK A01 T01890046  RH  039%=      5-min Rain = 0
KCA2 170556Z 32003KT 19/05 A3013 RMK A01 T01890046  RH  039%=      5-min Rain = 0
KCA2 170557Z 32003KT 19/05 A3013 RMK A01 T01880045  RH  039%=      5-min Rain = 0
KCA2 170558Z 32003KT 19/05 A3013 RMK A01 T01870045  RH  039%=      5-min Rain = 0
KCA2 170559Z 32003KT 19/05 A3013 RMK A01 T01870045  RH  039%=      5-min Rain = 0
KCA2 170600Z 32003KT 19/05 A3013 RMK A01 T01860045  RH  039%=      5-min Rain = 0
KCA2 170601Z 32003KT 19/05 A3013 RMK A01 T01860045  RH  039%=      5-min Rain = 0
KCA2 170602Z 33003KT 19/04 A3013 RMK A01 T01860044  RH  039%=      5-min Rain = 0
KCA2 170603Z 33003KT 18/04 A3013 RMK A01 T01840043  RH  039%=      5-min Rain = 0
KCA2 170604Z 33003KT 18/04 A3013 RMK A01 T01830043  RH  040%=      5-min Rain = 0
KCA2 170605Z 34003KT 18/04 A3013 RMK A01 T01820043  RH  040%=      5-min Rain = 0
KCA2 170606Z 34003KT 18/04 A3013 RMK A01 T01810043  RH  040%=      5-min Rain = 0
KCA2 170607Z 35002KT 18/04 A3013 RMK A01 T01810043  RH  040%=      5-min Rain = 0
KCA2 170608Z 34002KT 18/04 A3013 RMK A01 T01810044  RH  040%=      5-min Rain = 0
KCA2 170609Z 34002KT 18/04 A3013 RMK A01 T01800044  RH  041%=      5-min Rain = 0
KCA2 170610Z 33003KT 18/04 A3013 RMK A01 T01800044  RH  041%=      5-min Rain = 0
KCA2 170611Z 33003KT 18/05 A3013 RMK A01 T01800045  RH  041%=      5-min Rain = 0
KCA2 170612Z 33003KT 18/05 A3013 RMK A01 T01800045  RH  041%=      5-min Rain = 0
KCA2 170613Z 33003KT 18/04 A3012 RMK A01 T01800044  RH  041%=      5-min Rain = 0
KCA2 170614Z 33004KT 18/05 A3012 RMK A01 T01800045  RH  041%=      5-min Rain = 0
KCA2 170615Z 33003KT 18/05 A3012 RMK A01 T01800045  RH  041%=      5-min Rain = 0
KCA2 170616Z 33003KT 18/05 A3012 RMK A01 T01800045  RH  041%=      5-min Rain = 0
KCA2 170617Z 33003KT 18/04 A3012 RMK A01 T01800044  RH  041%=      5-min Rain = 0
KCA2 170618Z 33003KT 18/04 A3012 RMK A01 T01800044  RH  041%=      5-min Rain = 0
KCA2 170619Z 33003KT 18/04 A3012 RMK A01 T01790044  RH  041%=      5-min Rain = 0
KCA2 170620Z 32004KT 18/04 A3012 RMK A01 T01790044  RH  041%=      5-min Rain = 0
KCA2 170621Z 33004KT 18/04 A3012 RMK A01 T01780043  RH  041%=      5-min Rain = 0
KCA2 170622Z 33004KT 18/04 A3012 RMK A01 T01780044  RH  041%=      5-min Rain = 0
KCA2 170623Z 33005KT 18/04 A3012 RMK A01 T01780044  RH  041%=      5-min Rain = 0
KCA2 170624Z 33004KT 18/04 A3012 RMK A01 T01770044  RH  041%=      5-min Rain = 0
KCA2 170625Z 34004KT 18/04 A3012 RMK A01 T01770044  RH  041%=      5-min Rain = 0
KCA2 170626Z 34004KT 18/04 A3012 RMK A01 T01770044  RH  041%=      5-min Rain = 0
KCA2 170627Z 35004KT 18/04 A3012 RMK A01 T01770044  RH  041%=      5-min Rain = 0
KCA2 170628Z 35003KT 18/04 A3012 RMK A01 T01770044  RH  041%=      5-min Rain = 0
KCA2 170629Z 35003KT 18/05 A3012 RMK A01 T01770045  RH  041%=      5-min Rain = 0
KCA2 170630Z 34004KT 18/05 A3012 RMK A01 T01780045  RH  041%=      5-min Rain = 0
KCA2 170631Z 33004KT 18/05 A3012 RMK A01 T01780045  RH  041%=      5-min Rain = 0
KCA2 170632Z 32003KT 18/04 A3012 RMK A01 T01780044  RH  041%=      5-min Rain = 0
KCA2 170633Z 32003KT 18/04 A3012 RMK A01 T01760041  RH  041%=      5-min Rain = 0
KCA2 170634Z 32003KT 17/04 A3012 RMK A01 T01740041  RH  041%=      5-min Rain = 0
KCA2 170635Z 32003KT 17/04 A3012 RMK A01 T01730041  RH  042%=      5-min Rain = 0
KCA2 170636Z 32003KT 17/04 A3012 RMK A01 T01720041  RH  042%=      5-min Rain = 0
KCA2 170637Z 32003KT 17/04 A3012 RMK A01 T01710041  RH  042%=      5-min Rain = 0
KCA2 170638Z 33003KT 17/04 A3012 RMK A01 T01710042  RH  042%=      5-min Rain = 0
KCA2 170639Z 34003KT 17/04 A3012 RMK A01 T01710042  RH  042%=      5-min Rain = 0
KCA2 170640Z 34003KT 17/04 A3012 RMK A01 T01700042  RH  042%=      5-min Rain = 0
KCA2 170641Z 34003KT 17/04 A3012 RMK A01 T01710042  RH  042%=      5-min Rain = 0
KCA2 170642Z 33002KT 17/04 A3012 RMK A01 T01700042  RH  042%=      5-min Rain = 0
KCA2 170643Z 33003KT 17/04 A3012 RMK A01 T01700041  RH  042%=      5-min Rain = 0
KCA2 170644Z 31003KT 17/04 A3012 RMK A01 T01690041  RH  043%=      5-min Rain = 0
KCA2 170645Z 31003KT 17/04 A3012 RMK A01 T01690041  RH  043%=      5-min Rain = 0
KCA2 170646Z 32003KT 17/04 A3012 RMK A01 T01680041  RH  043%=      5-min Rain = 0
KCA2 170647Z 34002KT 17/04 A3012 RMK A01 T01680042  RH  043%=      5-min Rain = 0
KCA2 170648Z 36002KT 17/04 A3012 RMK A01 T01680042  RH  043%=      5-min Rain = 0
KCA2 170649Z 07002KT 17/04 A3012 RMK A01 T01690041  RH  043%=      5-min Rain = 0
KCA2 170650Z 07002KT 17/04 A3012 RMK A01 T01670037  RH  042%=      5-min Rain = 0
KCA2 170651Z 04002KT 17/04 A3012 RMK A01 T01660037  RH  042%=      5-min Rain = 0
KCA2 170652Z 02002KT 17/04 A3012 RMK A01 T01650040  RH  043%=      5-min Rain = 0
KCA2 170653Z 35003KT 17/04 A3012 RMK A01 T01670043  RH  044%=      5-min Rain = 0
KCA2 170654Z 34003KT 17/04 A3012 RMK A01 T01690044  RH  043%=      5-min Rain = 0
KCA2 170655Z 33003KT 17/04 A3011 RMK A01 T01710044  RH  043%=      5-min Rain = 0
KCA2 170656Z 32003KT 17/04 A3011 RMK A01 T01710041  RH  042%=      5-min Rain = 0
KCA2 170657Z 32003KT 17/04 A3011 RMK A01 T01690040  RH  042%=      5-min Rain = 0
KCA2 170658Z 32003KT 17/04 A3011 RMK A01 T01690043  RH  043%=      5-min Rain = 0
KCA2 170659Z 33003KT 17/04 A3011 RMK A01 T01700043  RH  043%=      5-min Rain = 0
KCA2 170700Z 33003KT 17/04 A3011 RMK A01 T01700043  RH  043%=      5-min Rain = 0
KCA2 170701Z 33003KT 17/04 A3011 RMK A01 T01700043  RH  043%=      5-min Rain = 0
KCA2 170702Z 32003KT 17/04 A3011 RMK A01 T01700042  RH  043%=      5-min Rain = 0
KCA2 170703Z 31002KT 17/04 A3011 RMK A01 T01690042  RH  043%=      5-min Rain = 0
KCA2 170704Z 30002KT 17/04 A3011 RMK A01 T01690041  RH  043%=      5-min Rain = 0
KCA2 170705Z 31003KT 17/04 A3011 RMK A01 T01680041  RH  043%=      5-min Rain = 0
KCA2 170706Z 32003KT 17/04 A3011 RMK A01 T01670041  RH  043%=      5-min Rain = 0
KCA2 170707Z 32004KT 17/04 A3011 RMK A01 T01670042  RH  043%=      5-min Rain = 0
KCA2 170708Z 32004KT 17/04 A3011 RMK A01 T01670042  RH  044%=      5-min Rain = 0
KCA2 170709Z 32004KT 17/04 A3011 RMK A01 T01680043  RH  043%=      5-min Rain = 0
KCA2 170710Z 32004KT 17/04 A3011 RMK A01 T01670043  RH  043%=      5-min Rain = 0
KCA2 170711Z 32003KT 17/04 A3011 RMK A01 T01670042  RH  043%=      5-min Rain = 0
KCA2 170712Z 31003KT 17/04 A3011 RMK A01 T01660042  RH  043%=      5-min Rain = 0
KCA2 170713Z 31003KT 17/04 A3011 RMK A01 T01660042  RH  044%=      5-min Rain = 0
KCA2 170714Z 31003KT 17/04 A3011 RMK A01 T01660043  RH  044%=      5-min Rain = 0
KCA2 170715Z 32002KT 17/04 A3011 RMK A01 T01670043  RH  044%=      5-min Rain = 0
KCA2 170716Z 32002KT 17/04 A3011 RMK A01 T01670044  RH  044%=      5-min Rain = 0
KCA2 170717Z 33002KT 17/04 A3011 RMK A01 T01680044  RH  044%=      5-min Rain = 0
KCA2 170718Z 34003KT 17/04 A3011 RMK A01 T01680044  RH  044%=      5-min Rain = 0
KCA2 170719Z 34003KT 17/04 A3011 RMK A01 T01690044  RH  043%=      5-min Rain = 0
KCA2 170720Z 34004KT 17/04 A3011 RMK A01 T01690044  RH  043%=      5-min Rain = 0
KCA2 170721Z 34003KT 17/04 A3011 RMK A01 T01690044  RH  043%=      5-min Rain = 0
KCA2 170722Z 34003KT 17/04 A3011 RMK A01 T01700044  RH  043%=      5-min Rain = 0
KCA2 170723Z 34002KT 17/04 A3011 RMK A01 T01700044  RH  043%=      5-min Rain = 0
KCA2 170724Z 34002KT 17/04 A3011 RMK A01 T01700044  RH  043%=      5-min Rain = 0
KCA2 170725Z 33001KT 17/04 A3011 RMK A01 T01700044  RH  043%=      5-min Rain = 0
KCA2 170726Z 33001KT 17/04 A3011 RMK A01 T01700042  RH  043%=      5-min Rain = 0
KCA2 170727Z 33002KT 17/04 A3011 RMK A01 T01680040  RH  042%=      5-min Rain = 0
KCA2 170728Z 33002KT 17/04 A3011 RMK A01 T01670040  RH  043%=      5-min Rain = 0
KCA2 170729Z 32003KT 17/04 A3011 RMK A01 T01650041  RH  044%=      5-min Rain = 0
KCA2 170730Z 32003KT 17/04 A3011 RMK A01 T01650043  RH  044%=      5-min Rain = 0
KCA2 170731Z 33003KT 17/04 A3011 RMK A01 T01650043  RH  044%=      5-min Rain = 0
KCA2 170732Z 33003KT 17/04 A3011 RMK A01 T01660043  RH  044%=      5-min Rain = 0
KCA2 170733Z 33003KT 17/04 A3011 RMK A01 T01670044  RH  044%=      5-min Rain = 0
KCA2 170734Z 34002KT 17/04 A3011 RMK A01 T01670043  RH  044%=      5-min Rain = 0
KCA2 170735Z 35002KT 17/04 A3011 RMK A01 T01670042  RH  043%=      5-min Rain = 0
KCA2 170736Z 33002KT 17/04 A3011 RMK A01 T01670042  RH  043%=      5-min Rain = 0
KCA2 170737Z 32002KT 17/04 A3011 RMK A01 T01660043  RH  044%=      5-min Rain = 0
KCA2 170738Z 32002KT 17/04 A3011 RMK A01 T01670044  RH  044%=      5-min Rain = 0
KCA2 170739Z 34002KT 17/04 A3011 RMK A01 T01680043  RH  044%=      5-min Rain = 0
KCA2 170740Z 05002KT 17/04 A3011 RMK A01 T01670039  RH  042%=      5-min Rain = 0
KCA2 170741Z 04002KT 16/03 A3011 RMK A01 T01640031  RH  041%=      5-min Rain = 0
KCA2 170742Z 36001KT 16/03 A3011 RMK A01 T01600032  RH  042%=      5-min Rain = 0
KCA2 170743Z 31002KT 16/04 A3011 RMK A01 T01590038  RH  044%=      5-min Rain = 0
KCA2 170744Z 31002KT 16/04 A3011 RMK A01 T01600042  RH  045%=      5-min Rain = 0
KCA2 170745Z 31001KT 16/04 A3011 RMK A01 T01620042  RH  045%=      5-min Rain = 0
KCA2 170746Z 09005KT 16/03 A3011 RMK A01 T01620034  RH  042%=      5-min Rain = 0
KCA2 170747Z 08006KT 16/03 A3011 RMK A01 T01570027  RH  042%=      5-min Rain = 0
KCA2 170748Z 07003KT 15/03 A3011 RMK A01 T01540030  RH  043%=      5-min Rain = 0
KCA2 170749Z 03001KT 15/04 A3011 RMK A01 T01540035  RH  045%=      5-min Rain = 0
KCA2 170750Z 32002KT 16/04 A3011 RMK A01 T01580040  RH  045%=      5-min Rain = 0
KCA2 170751Z 29003KT 16/04 A3011 RMK A01 T01600038  RH  044%=      5-min Rain = 0
KCA2 170752Z 28002KT 16/03 A3011 RMK A01 T01610034  RH  043%=      5-min Rain = 0
KCA2 170753Z 01001KT 16/03 A3011 RMK A01 T01580032  RH  043%=      5-min Rain = 0
KCA2 170754Z 10006KT 16/03 A3011 RMK A01 T01560033  RH  044%=      5-min Rain = 0
KCA2 170755Z 10006KT 16/04 A3011 RMK A01 T01570035  RH  044%=      5-min Rain = 0
KCA2 170756Z 09005KT 16/04 A3011 RMK A01 T01590037  RH  044%=      5-min Rain = 0
KCA2 170757Z 06001KT 16/04 A3011 RMK A01 T01610039  RH  044%=      5-min Rain = 0
KCA2 170758Z 31002KT 17/04 A3011 RMK A01 T01650042  RH  044%=      5-min Rain = 0
KCA2 170759Z 31004KT 17/04 A3011 RMK A01 T01690044  RH  044%=      5-min Rain = 0
KCA2 170800Z 32003KT 17/04 A3011 RMK A01 T01700042  RH  043%=      5-min Rain = 0
KCA2 170801Z 02003KT 17/04 A3011 RMK A01 T01700039  RH  042%=      5-min Rain = 0
KCA2 170802Z 04003KT 17/04 A3011 RMK A01 T01690038  RH  042%=      5-min Rain = 0
KCA2 170803Z 10002KT 17/04 A3011 RMK A01 T01670038  RH  042%=      5-min Rain = 0
KCA2 170804Z 15002KT 17/04 A3011 RMK A01 T01660038  RH  043%=      5-min Rain = 0
KCA2 170805Z 17002KT 16/04 A3011 RMK A01 T01640038  RH  043%=      5-min Rain = 0
KCA2 170806Z 20002KT 16/04 A3011 RMK A01 T01630037  RH  043%=      5-min Rain = 0
KCA2 170807Z 24002KT 16/04 A3011 RMK A01 T01620036  RH  043%=      5-min Rain = 0
KCA2 170808Z 24002KT 16/04 A3011 RMK A01 T01600036  RH  043%=      5-min Rain = 0
KCA2 170809Z 25002KT 16/03 A3011 RMK A01 T01580034  RH  043%=      5-min Rain = 0
KCA2 170810Z 25002KT 16/04 A3011 RMK A01 T01560035  RH  044%=      5-min Rain = 0
KCA2 170811Z 24002KT 16/04 A3011 RMK A01 T01550037  RH  045%=      5-min Rain = 0
KCA2 170812Z 23002KT 16/04 A3011 RMK A01 T01550038  RH  046%=      5-min Rain = 0
KCA2 170813Z 21003KT 16/04 A3011 RMK A01 T01550041  RH  047%=      5-min Rain = 0
KCA2 170814Z 21002KT 16/04 A3011 RMK A01 T01550042  RH  047%=      5-min Rain = 0
KCA2 170815Z 21002KT 15/04 A3011 RMK A01 T01530041  RH  047%=      5-min Rain = 0
KCA2 170816Z 22003KT 15/04 A3011 RMK A01 T01530042  RH  048%=      5-min Rain = 0
KCA2 170817Z 23004KT 15/04 A3011 RMK A01 T01520044  RH  048%=      5-min Rain = 0
KCA2 170818Z 24004KT 15/04 A3011 RMK A01 T01510044  RH  049%=      5-min Rain = 0
KCA2 170819Z 25004KT 15/04 A3011 RMK A01 T01500044  RH  049%=      5-min Rain = 0
KCA2 170820Z 25003KT 15/05 A3011 RMK A01 T01500045  RH  049%=      5-min Rain = 0
KCA2 170821Z 25002KT 15/05 A3011 RMK A01 T01490045  RH  050%=      5-min Rain = 0
KCA2 170822Z 25002KT 15/05 A3011 RMK A01 T01490045  RH  050%=      5-min Rain = 0
KCA2 170823Z 24002KT 15/04 A3011 RMK A01 T01490044  RH  049%=      5-min Rain = 0
KCA2 170824Z 24002KT 15/05 A3011 RMK A01 T01500045  RH  049%=      5-min Rain = 0
KCA2 170825Z 26002KT 15/05 A3011 RMK A01 T01510045  RH  049%=      5-min Rain = 0
KCA2 170826Z 29002KT 15/05 A3011 RMK A01 T01530045  RH  049%=      5-min Rain = 0
KCA2 170827Z 30001KT 15/05 A3011 RMK A01 T01530045  RH  048%=      5-min Rain = 0
KCA2 170828Z 28001KT 15/04 A3011 RMK A01 T01530044  RH  048%=      5-min Rain = 0
KCA2 170829Z 27001KT 15/04 A3011 RMK A01 T01530044  RH  048%=      5-min Rain = 0
KCA2 170830Z 27001KT 15/04 A3011 RMK A01 T01530044  RH  048%=      5-min Rain = 0
KCA2 170831Z 27001KT 15/04 A3011 RMK A01 T01540044  RH  048%=      5-min Rain = 0
KCA2 170832Z 28001KT 16/05 A3011 RMK A01 T01550045  RH  048%=      5-min Rain = 0
KCA2 170833Z 28001KT 16/05 A3011 RMK A01 T01560045  RH  047%=      5-min Rain = 0
KCA2 170834Z 28001KT 16/04 A3011 RMK A01 T01560044  RH  047%=      5-min Rain = 0
KCA2 170835Z 28002KT 16/05 A3011 RMK A01 T01570045  RH  047%=      5-min Rain = 0
KCA2 170836Z 29002KT 16/04 A3011 RMK A01 T01570044  RH  047%=      5-min Rain = 0
KCA2 170837Z 28002KT 16/04 A3011 RMK A01 T01570044  RH  047%=      5-min Rain = 0
KCA2 170838Z 28001KT 16/04 A3011 RMK A01 T01560044  RH  047%=      5-min Rain = 0
KCA2 170839Z 28000KT 16/04 A3011 RMK A01 T01560044  RH  047%=      5-min Rain = 0
KCA2 170840Z 28000KT 16/04 A3011 RMK A01 T01560044  RH  047%=      5-min Rain = 0
KCA2 170841Z 28001KT 16/04 A301 RMK A01 T01560044  RH  047%=      5-min Rain = 0
KCA2 170842Z 29001KT 16/05 A301 RMK A01 T01570045  RH  047%=      5-min Rain = 0
KCA2 170843Z 29001KT 16/05 A301 RMK A01 T01600046  RH  047%=      5-min Rain = 0
KCA2 170844Z 29001KT 16/05 A301 RMK A01 T01600045  RH  046%=      5-min Rain = 0
KCA2 170845Z 29001KT 16/04 A301 RMK A01 T01600044  RH  046%=      5-min Rain = 0
KCA2 170846Z 29001KT 16/04 A301 RMK A01 T01590043  RH  046%=      5-min Rain = 0
KCA2 170847Z 29001KT 16/04 A301 RMK A01 T01580043  RH  046%=      5-min Rain = 0
KCA2 170848Z 29001KT 16/04 A301 RMK A01 T01580043  RH  046%=      5-min Rain = 0
KCA2 170849Z 29001KT 16/04 A301 RMK A01 T01580043  RH  046%=      5-min Rain = 0
KCA2 170850Z 29001KT 16/04 A301 RMK A01 T01570042  RH  046%=      5-min Rain = 0
KCA2 170851Z 29001KT 16/04 A301 RMK A01 T01560041  RH  046%=      5-min Rain = 0
KCA2 170852Z 29001KT 16/04 A301 RMK A01 T01570043  RH  047%=      5-min Rain = 0
KCA2 170853Z 31002KT 16/04 A301 RMK A01 T01580042  RH  046%=      5-min Rain = 0
KCA2 170854Z 33003KT 16/04 A301 RMK A01 T01580042  RH  046%=      5-min Rain = 0
KCA2 170855Z 34002KT 16/04 A301 RMK A01 T01570040  RH  045%=      5-min Rain = 0
KCA2 170856Z 34002KT 16/04 A301 RMK A01 T01550038  RH  046%=      5-min Rain = 0
KCA2 170857Z 34001KT 15/04 A301 RMK A01 T01540037  RH  045%=      5-min Rain = 0
KCA2 170858Z 34000KT 15/04 A301 RMK A01 T01530036  RH  045%=      5-min Rain = 0
KCA2 170859Z 32001KT 15/04 A301 RMK A01 T01520038  RH  047%=      5-min Rain = 0
KCA2 170900Z 33002KT 15/04 A301 RMK A01 T01530039  RH  047%=      5-min Rain = 0
KCA2 170901Z 34003KT 15/04 A301 RMK A01 T01530038  RH  046%=      5-min Rain = 0
KCA2 170902Z 36003KT 15/04 A301 RMK A01 T01530039  RH  046%=      5-min Rain = 0
KCA2 170903Z 03001KT 15/04 A301 RMK A01 T01530037  RH  046%=      5-min Rain = 0
KCA2 170904Z 06001KT 15/04 A301 RMK A01 T01530036  RH  045%=      5-min Rain = 0
KCA2 170905Z 06001KT 15/04 A301 RMK A01 T01520035  RH  046%=      5-min Rain = 0
KCA2 170906Z 05000KT 15/03 A301 RMK A01 T01520034  RH  045%=      5-min Rain = 0
KCA2 170907Z 33001KT 15/04 A301 RMK A01 T01510036  RH  046%=      5-min Rain = 0
KCA2 170908Z 33002KT 15/04 A301 RMK A01 T01510037  RH  046%=      5-min Rain = 0
KCA2 170909Z 33002KT 15/04 A301 RMK A01 T01520037  RH  046%=      5-min Rain = 0
KCA2 170910Z 33001KT 15/04 A301 RMK A01 T01520036  RH  046%=      5-min Rain = 0
KCA2 170911Z 00000KT 15/04 A301 RMK A01 T01520035  RH  046%=      5-min Rain = 0
KCA2 170912Z 32000KT 15/03 A301 RMK A01 T01500032  RH  045%=      5-min Rain = 0
KCA2 170913Z 32001KT 15/04 A301 RMK A01 T01490036  RH  047%=      5-min Rain = 0
KCA2 170914Z 32002KT 15/04 A301 RMK A01 T01500039  RH  047%=      5-min Rain = 0
KCA2 170915Z 33003KT 15/04 A301 RMK A01 T01520040  RH  047%=      5-min Rain = 0
KCA2 170916Z 35002KT 15/04 A301 RMK A01 T01530038  RH  046%=      5-min Rain = 0
KCA2 170917Z 01001KT 15/04 A301 RMK A01 T01530037  RH  046%=      5-min Rain = 0
KCA2 170918Z 03001KT 15/03 A301 RMK A01 T01510031  RH  044%=      5-min Rain = 0
KCA2 170919Z 03000KT 15/03 A301 RMK A01 T01470028  RH  045%=      5-min Rain = 0
KCA2 170920Z 30000KT 14/03 A301 RMK A01 T01440032  RH  047%=      5-min Rain = 0
KCA2 170921Z 31001KT 14/04 A301 RMK A01 T01440038  RH  049%=      5-min Rain = 0
KCA2 170922Z 31002KT 15/04 A301 RMK A01 T01460039  RH  049%=      5-min Rain = 0
KCA2 170923Z 32002KT 15/04 A301 RMK A01 T01480039  RH  048%=      5-min Rain = 0
KCA2 170924Z 29001KT 15/04 A301 RMK A01 T01490037  RH  047%=      5-min Rain = 0
KCA2 170925Z 25000KT 15/04 A301 RMK A01 T01490038  RH  047%=      5-min Rain = 0
KCA2 170926Z 26000KT 15/04 A301 RMK A01 T01500036  RH  046%=      5-min Rain = 0
KCA2 170927Z 00000KT 15/03 A301 RMK A01 T01490031  RH  045%=      5-min Rain = 0
KCA2 170928Z 26001KT 15/03 A301 RMK A01 T01470030  RH  045%=      5-min Rain = 0
KCA2 170929Z 29001KT 15/03 A3009 RMK A01 T01450031  RH  046%=      5-min Rain = 0
KCA2 170930Z 30001KT 15/04 A3009 RMK A01 T01450036  RH  048%=      5-min Rain = 0
KCA2 170931Z 31001KT 15/04 A3009 RMK A01 T01460037  RH  048%=      5-min Rain = 0
KCA2 170932Z 31000KT 15/04 A301 RMK A01 T01460036  RH  048%=      5-min Rain = 0
KCA2 170933Z 17000KT 15/03 A301 RMK A01 T01470032  RH  046%=      5-min Rain = 0
KCA2 170934Z 17001KT 15/03 A3009 RMK A01 T01450028  RH  045%=      5-min Rain = 0
KCA2 170935Z 17000KT 14/03 A3009 RMK A01 T01420027  RH  046%=      5-min Rain = 0
KCA2 170936Z 28001KT 14/03 A3009 RMK A01 T01400027  RH  046%=      5-min Rain = 0
KCA2 170937Z 28001KT 14/03 A3009 RMK A01 T01400033  RH  049%=      5-min Rain = 0
KCA2 170938Z 29001KT 14/04 A3009 RMK A01 T01420037  RH  049%=      5-min Rain = 0
KCA2 170939Z 22000KT 14/04 A3009 RMK A01 T01440038  RH  049%=      5-min Rain = 0
KCA2 170940Z 21001KT 15/04 A3009 RMK A01 T01450035  RH  048%=      5-min Rain = 0
KCA2 170941Z 20001KT 15/03 A3009 RMK A01 T01450029  RH  046%=      5-min Rain = 0
KCA2 170942Z 22001KT 14/03 A3009 RMK A01 T01440032  RH  047%=      5-min Rain = 0
KCA2 170943Z 25002KT 14/04 A3009 RMK A01 T01440036  RH  048%=      5-min Rain = 0
KCA2 170944Z 23002KT 14/03 A3009 RMK A01 T01440034  RH  047%=      5-min Rain = 0
KCA2 170945Z 19002KT 15/03 A3009 RMK A01 T01450031  RH  046%=      5-min Rain = 0
KCA2 170946Z 17001KT 14/03 A3009 RMK A01 T01440032  RH  047%=      5-min Rain = 0
KCA2 170947Z 20001KT 14/03 A3009 RMK A01 T01440034  RH  048%=      5-min Rain = 0
KCA2 170948Z 25001KT 14/03 A3009 RMK A01 T01430034  RH  048%=      5-min Rain = 0
KCA2 170949Z 27002KT 14/04 A3009 RMK A01 T01430035  RH  048%=      5-min Rain = 0
KCA2 170950Z 26001KT 14/04 A3009 RMK A01 T01440038  RH  049%=      5-min Rain = 0
KCA2 170951Z 25001KT 15/04 A3009 RMK A01 T01450037  RH  048%=      5-min Rain = 0
KCA2 170952Z 23001KT 15/04 A3009 RMK A01 T01450035  RH  048%=      5-min Rain = 0
KCA2 170953Z 24001KT 14/03 A3009 RMK A01 T01440030  RH  046%=      5-min Rain = 0
KCA2 170954Z 27002KT 14/03 A3009 RMK A01 T01440033  RH  047%=      5-min Rain = 0
KCA2 170955Z 27002KT 14/03 A3009 RMK A01 T01430033  RH  047%=      5-min Rain = 0
KCA2 170956Z 26002KT 14/04 A3009 RMK A01 T01420035  RH  049%=      5-min Rain = 0
KCA2 170957Z 26002KT 14/04 A3009 RMK A01 T01420038  RH  049%=      5-min Rain = 0
KCA2 170958Z 26002KT 14/04 A3009 RMK A01 T01420041  RH  051%=      5-min Rain = 0
KCA2 170959Z 26002KT 14/04 A3009 RMK A01 T01420041  RH  051%=      5-min Rain = 0
KCA2 171000Z 26002KT 14/04 A3009 RMK A01 T01420042  RH  051%=      5-min Rain = 0
KCA2 171001Z 26002KT 14/04 A3009 RMK A01 T01420041  RH  050%=      5-min Rain = 0
KCA2 171002Z 25001KT 14/04 A3009 RMK A01 T01420040  RH  051%=      5-min Rain = 0
KCA2 171003Z 24000KT 14/04 A3009 RMK A01 T01410039  RH  050%=      5-min Rain = 0
KCA2 171004Z 26000KT 14/03 A3009 RMK A01 T01390028  RH  047%=      5-min Rain = 0
KCA2 171005Z 27002KT 14/04 A3009 RMK A01 T01380037  RH  050%=      5-min Rain = 0
KCA2 171006Z 27003KT 14/04 A3009 RMK A01 T01380039  RH  051%=      5-min Rain = 0
KCA2 171007Z 27002KT 14/03 A3009 RMK A01 T01380034  RH  050%=      5-min Rain = 0
KCA2 171008Z 27001KT 14/04 A3009 RMK A01 T01380035  RH  050%=      5-min Rain = 0
KCA2 171009Z 07002KT 14/03 A3009 RMK A01 T01370029  RH  048%=      5-min Rain = 0
KCA2 171010Z 06003KT 14/02 A3009 RMK A01 T01350023  RH  047%=      5-min Rain = 0
KCA2 171011Z 31001KT 14/04 A3009 RMK A01 T01350036  RH  051%=      5-min Rain = 0
KCA2 171012Z 27001KT 14/04 A3009 RMK A01 T01370041  RH  052%=      5-min Rain = 0
KCA2 171013Z 27001KT 14/04 A3009 RMK A01 T01390043  RH  052%=      5-min Rain = 0
KCA2 171014Z 25000KT 14/04 A3009 RMK A01 T01400040  RH  051%=      5-min Rain = 0
KCA2 171015Z 11001KT 14/02 A3009 RMK A01 T01390024  RH  046%=      5-min Rain = 0
KCA2 171016Z 13000KT 14/02 A3009 RMK A01 T01350024  RH  047%=      5-min Rain = 0
KCA2 171017Z 00000KT 13/03 A3009 RMK A01 T01340025  RH  048%=      5-min Rain = 0
KCA2 171018Z 00000KT 13/03 A3009 RMK A01 T01340032  RH  050%=      5-min Rain = 0
KCA2 171019Z 00000KT 13/04 A3009 RMK A01 T01340037  RH  052%=      5-min Rain = 0
KCA2 171020Z 07000KT 14/04 A3009 RMK A01 T01360037  RH  051%=      5-min Rain = 0
KCA2 171021Z 07002KT 14/03 A3009 RMK A01 T01370027  RH  047%=      5-min Rain = 0
KCA2 171022Z 06002KT 14/02 A3009 RMK A01 T01360024  RH  047%=      5-min Rain = 0
KCA2 171023Z 04001KT 14/02 A3009 RMK A01 T01350023  RH  047%=      5-min Rain = 0
KCA2 171024Z 05001KT 13/02 A3009 RMK A01 T01340023  RH  047%=      5-min Rain = 0
KCA2 171025Z 05001KT 13/02 A3009 RMK A01 T01330023  RH  047%=      5-min Rain = 0
KCA2 171026Z 06001KT 13/03 A3009 RMK A01 T01330028  RH  049%=      5-min Rain = 0
KCA2 171027Z 08001KT 14/03 A3009 RMK A01 T01350030  RH  049%=      5-min Rain = 0
KCA2 171028Z 07001KT 14/03 A3009 RMK A01 T01360027  RH  048%=      5-min Rain = 0
KCA2 171029Z 07000KT 14/03 A3009 RMK A01 T01370026  RH  047%=      5-min Rain = 0
KCA2 171030Z 06000KT 14/03 A3009 RMK A01 T01370027  RH  047%=      5-min Rain = 0
KCA2 171031Z 03001KT 14/03 A3009 RMK A01 T01360027  RH  047%=      5-min Rain = 0
KCA2 171032Z 03002KT 14/03 A3009 RMK A01 T01370028  RH  048%=      5-min Rain = 0
KCA2 171033Z 03002KT 14/03 A3009 RMK A01 T01370029  RH  048%=      5-min Rain = 0
KCA2 171034Z 02002KT 14/03 A3009 RMK A01 T01380030  RH  048%=      5-min Rain = 0
KCA2 171035Z 01001KT 14/03 A3009 RMK A01 T01380029  RH  048%=      5-min Rain = 0
KCA2 171036Z 01001KT 14/03 A3009 RMK A01 T01380029  RH  048%=      5-min Rain = 0
KCA2 171037Z 01001KT 14/03 A3009 RMK A01 T01390032  RH  048%=      5-min Rain = 0
KCA2 171038Z 35001KT 14/03 A3009 RMK A01 T01400031  RH  048%=      5-min Rain = 0
KCA2 171039Z 35001KT 14/03 A3009 RMK A01 T01400030  RH  047%=      5-min Rain = 0
KCA2 171040Z 35001KT 14/03 A3009 RMK A01 T01400031  RH  048%=      5-min Rain = 0
KCA2 171041Z 35002KT 14/03 A3009 RMK A01 T01400032  RH  048%=      5-min Rain = 0
KCA2 171042Z 34002KT 14/03 A3009 RMK A01 T01390029  RH  047%=      5-min Rain = 0
KCA2 171043Z 35001KT 14/03 A3009 RMK A01 T01390029  RH  047%=      5-min Rain = 0
KCA2 171044Z 35001KT 14/03 A3009 RMK A01 T01380027  RH  047%=      5-min Rain = 0
KCA2 171045Z 35001KT 14/02 A3009 RMK A01 T01360024  RH  047%=      5-min Rain = 0
KCA2 171046Z 34001KT 13/03 A3009 RMK A01 T01340028  RH  049%=      5-min Rain = 0
KCA2 171047Z 34001KT 14/03 A301 RMK A01 T01350030  RH  049%=      5-min Rain = 0
KCA2 171048Z 34000KT 14/03 A301 RMK A01 T01360030  RH  049%=      5-min Rain = 0
KCA2 171049Z 00000KT 14/03 A301 RMK A01 T01370030  RH  048%=      5-min Rain = 0
KCA2 171050Z 00000KT 14/03 A301 RMK A01 T01360025  RH  047%=      5-min Rain = 0
KCA2 171051Z 00000KT 14/03 A301 RMK A01 T01350026  RH  048%=      5-min Rain = 0
KCA2 171052Z 01000KT 14/03 A301 RMK A01 T01350028  RH  049%=      5-min Rain = 0
KCA2 171053Z 36001KT 14/03 A301 RMK A01 T01350029  RH  049%=      5-min Rain = 0
KCA2 171054Z 35000KT 13/03 A301 RMK A01 T01340030  RH  049%=      5-min Rain = 0
KCA2 171055Z 35000KT 13/03 A301 RMK A01 T01340030  RH  049%=      5-min Rain = 0
KCA2 171056Z 31000KT 13/03 A301 RMK A01 T01330030  RH  049%=      5-min Rain = 0
KCA2 171057Z 31001KT 13/03 A301 RMK A01 T01320030  RH  050%=      5-min Rain = 0
KCA2 171058Z 28001KT 13/03 A301 RMK A01 T01320032  RH  051%=      5-min Rain = 0
KCA2 171059Z 27002KT 13/03 A301 RMK A01 T01330033  RH  051%=      5-min Rain = 0
KCA2 171100Z 26002KT 14/04 A301 RMK A01 T01350037  RH  051%=      5-min Rain = 0
KCA2 171101Z 26002KT 14/04 A301 RMK A01 T01370038  RH  051%=      5-min Rain = 0
KCA2 171102Z 25002KT 14/05 A301 RMK A01 T01360046  RH  054%=      5-min Rain = 0
KCA2 171103Z 25002KT 13/05 A301 RMK A01 T01340053  RH  058%=      5-min Rain = 0
KCA2 171104Z 25002KT 13/06 A301 RMK A01 T01300058  RH  061%=      5-min Rain = 0
KCA2 171105Z 26002KT 13/06 A301 RMK A01 T01270057  RH  062%=      5-min Rain = 0
KCA2 171106Z 27002KT 13/06 A301 RMK A01 T01250056  RH  063%=      5-min Rain = 0
KCA2 171107Z 27002KT 12/06 A301 RMK A01 T01240056  RH  063%=      5-min Rain = 0
KCA2 171108Z 28003KT 12/05 A301 RMK A01 T01230054  RH  063%=      5-min Rain = 0
KCA2 171109Z 28003KT 12/05 A301 RMK A01 T01220054  RH  063%=      5-min Rain = 0
KCA2 171110Z 29003KT 12/05 A301 RMK A01 T01210050  RH  062%=      5-min Rain = 0
KCA2 171111Z 29003KT 12/05 A301 RMK A01 T01220049  RH  061%=      5-min Rain = 0
KCA2 171112Z 29003KT 12/05 A301 RMK A01 T01230046  RH  059%=      5-min Rain = 0
KCA2 171113Z 28003KT 13/04 A301 RMK A01 T01250044  RH  058%=      5-min Rain = 0
KCA2 171114Z 28003KT 13/04 A301 RMK A01 T01280042  RH  056%=      5-min Rain = 0
KCA2 171115Z 28003KT 13/04 A301 RMK A01 T01300042  RH  055%=      5-min Rain = 0
KCA2 171116Z 28003KT 13/04 A301 RMK A01 T01310042  RH  055%=      5-min Rain = 0
KCA2 171117Z 28005KT 13/04 A301 RMK A01 T01310041  RH  054%=      5-min Rain = 0
KCA2 171118Z 29004KT 13/04 A301 RMK A01 T01310040  RH  054%=      5-min Rain = 0
KCA2 171119Z 28004KT 13/04 A301 RMK A01 T01330040  RH  053%=      5-min Rain = 0
KCA2 171120Z 28004KT 13/04 A301 RMK A01 T01340040  RH  053%=      5-min Rain = 0
KCA2 171121Z 28003KT 13/04 A301 RMK A01 T01340039  RH  053%=      5-min Rain = 0
KCA2 171122Z 28003KT 14/04 A301 RMK A01 T01350040  RH  053%=      5-min Rain = 0
KCA2 171123Z 29003KT 14/04 A301 RMK A01 T01350040  RH  053%=      5-min Rain = 0
KCA2 171124Z 29004KT 14/04 A301 RMK A01 T01360041  RH  053%=      5-min Rain = 0
KCA2 171125Z 29004KT 14/04 A301 RMK A01 T01360040  RH  052%=      5-min Rain = 0
KCA2 171126Z 29004KT 14/04 A301 RMK A01 T01360040  RH  052%=      5-min Rain = 0
KCA2 171127Z 29002KT 14/04 A301 RMK A01 T01370041  RH  052%=      5-min Rain = 0
KCA2 171128Z 27002KT 14/04 A301 RMK A01 T01370042  RH  053%=      5-min Rain = 0
KCA2 171129Z 28003KT 14/04 A301 RMK A01 T01370043  RH  053%=      5-min Rain = 0
KCA2 171130Z 28004KT 14/04 A301 RMK A01 T01370043  RH  053%=      5-min Rain = 0
KCA2 171131Z 27003KT 14/04 A301 RMK A01 T01370044  RH  053%=      5-min Rain = 0
KCA2 171132Z 27003KT 14/04 A301 RMK A01 T01370043  RH  053%=      5-min Rain = 0
KCA2 171133Z 28003KT 14/04 A301 RMK A01 T01360043  RH  053%=      5-min Rain = 0
KCA2 171134Z 28003KT 14/04 A301 RMK A01 T01360044  RH  054%=      5-min Rain = 0
KCA2 171135Z 29002KT 14/04 A301 RMK A01 T01350044  RH  054%=      5-min Rain = 0
KCA2 171136Z 30002KT 14/04 A301 RMK A01 T01350044  RH  054%=      5-min Rain = 0
KCA2 171137Z 29003KT 14/04 A301 RMK A01 T01350044  RH  054%=      5-min Rain = 0
KCA2 171138Z 30002KT 14/04 A301 RMK A01 T01350043  RH  054%=      5-min Rain = 0
KCA2 171139Z 32003KT 14/04 A301 RMK A01 T01360043  RH  053%=      5-min Rain = 0
KCA2 171140Z 33002KT 14/04 A301 RMK A01 T01360042  RH  053%=      5-min Rain = 0
KCA2 171141Z 36002KT 14/04 A301 RMK A01 T01360041  RH  052%=      5-min Rain = 0
KCA2 171142Z 04002KT 14/03 A301 RMK A01 T01360034  RH  050%=      5-min Rain = 0
KCA2 171143Z 05002KT 13/03 A301 RMK A01 T01330030  RH  050%=      5-min Rain = 0
KCA2 171144Z 04002KT 13/03 A301 RMK A01 T01310030  RH  050%=      5-min Rain = 0
KCA2 171145Z 06003KT 13/03 A301 RMK A01 T01310029  RH  050%=      5-min Rain = 0
KCA2 171146Z 06003KT 13/03 A3011 RMK A01 T01290026  RH  050%=      5-min Rain = 0
KCA2 171147Z 05003KT 13/03 A3011 RMK A01 T01280026  RH  050%=      5-min Rain = 0
KCA2 171148Z 04002KT 13/03 A3011 RMK A01 T01270026  RH  050%=      5-min Rain = 0
KCA2 171149Z 05003KT 13/03 A3011 RMK A01 T01260027  RH  051%=      5-min Rain = 0
KCA2 171150Z 05003KT 13/03 A3011 RMK A01 T01260027  RH  051%=      5-min Rain = 0
KCA2 171151Z 05003KT 13/03 A3011 RMK A01 T01270028  RH  051%=      5-min Rain = 0
KCA2 171152Z 03002KT 13/03 A3011 RMK A01 T01270029  RH  051%=      5-min Rain = 0
KCA2 171153Z 01003KT 13/03 A3011 RMK A01 T01280029  RH  051%=      5-min Rain = 0
KCA2 171154Z 00003KT 13/03 A3011 RMK A01 T01290028  RH  050%=      5-min Rain = 0
KCA2 171155Z 02002KT 13/03 A3011 RMK A01 T01290028  RH  050%=      5-min Rain = 0
KCA2 171156Z 04002KT 13/03 A3011 RMK A01 T01290028  RH  050%=      5-min Rain = 0
KCA2 171157Z 01002KT 13/03 A3011 RMK A01 T01290029  RH  051%=      5-min Rain = 0
KCA2 171158Z 00003KT 13/03 A3011 RMK A01 T01290030  RH  051%=      5-min Rain = 0
KCA2 171159Z 01002KT 13/03 A3011 RMK A01 T01300030  RH  051%=      5-min Rain = 0
KCA2 171200Z 01002KT 13/03 A3011 RMK A01 T01290030  RH  051%=      5-min Rain = 0
KCA2 171201Z 35003KT 13/03 A3011 RMK A01 T01300031  RH  051%=      5-min Rain = 0
KCA2 171202Z 36003KT 13/03 A3011 RMK A01 T01300032  RH  051%=      5-min Rain = 0
KCA2 171203Z 01002KT 13/03 A3011 RMK A01 T01290033  RH  052%=      5-min Rain = 0
KCA2 171204Z 03001KT 13/03 A3011 RMK A01 T01300033  RH  052%=      5-min Rain = 0
KCA2 171205Z 02002KT 13/03 A3011 RMK A01 T01300030  RH  051%=      5-min Rain = 0
KCA2 171206Z 01002KT 13/03 A3011 RMK A01 T01290027  RH  050%=      5-min Rain = 0
KCA2 171207Z 02002KT 13/03 A3011 RMK A01 T01280026  RH  050%=      5-min Rain = 0
KCA2 171208Z 02001KT 13/03 A3011 RMK A01 T01250026  RH  051%=      5-min Rain = 0
KCA2 171209Z 01001KT 13/03 A3011 RMK A01 T01250028  RH  052%=      5-min Rain = 0
KCA2 171210Z 00002KT 13/03 A3011 RMK A01 T01250030  RH  052%=      5-min Rain = 0
KCA2 171211Z 01002KT 13/03 A3011 RMK A01 T01250030  RH  053%=      5-min Rain = 0
KCA2 171212Z 02002KT 13/03 A3011 RMK A01 T01250032  RH  053%=      5-min Rain = 0
KCA2 171213Z 02003KT 13/03 A3011 RMK A01 T01270034  RH  053%=      5-min Rain = 0
KCA2 171214Z 03003KT 13/04 A3011 RMK A01 T01280035  RH  053%=      5-min Rain = 0
KCA2 171215Z 04002KT 13/03 A3011 RMK A01 T01300034  RH  052%=      5-min Rain = 0
KCA2 171216Z 06003KT 13/03 A3011 RMK A01 T01300031  RH  051%=      5-min Rain = 0
KCA2 171217Z 09003KT 13/03 A3011 RMK A01 T01270027  RH  051%=      5-min Rain = 0
KCA2 171218Z 08003KT 12/03 A301 RMK A01 T01240027  RH  051%=      5-min Rain = 0
KCA2 171219Z 07003KT 12/03 A301 RMK A01 T01230029  RH  053%=      5-min Rain = 0
KCA2 171220Z 08003KT 12/03 A3011 RMK A01 T01220029  RH  053%=      5-min Rain = 0
KCA2 171221Z 09003KT 12/03 A3011 RMK A01 T01220028  RH  053%=      5-min Rain = 0
KCA2 171222Z 07003KT 12/03 A3011 RMK A01 T01210028  RH  053%=      5-min Rain = 0
KCA2 171223Z 05002KT 12/03 A3011 RMK A01 T01210030  RH  054%=      5-min Rain = 0
KCA2 171224Z 05001KT 12/03 A3011 RMK A01 T01210029  RH  053%=      5-min Rain = 0
KCA2 171225Z 00000KT 12/03 A301 RMK A01 T01210028  RH  053%=      5-min Rain = 0
KCA2 171226Z 01001KT 12/03 A301 RMK A01 T01210028  RH  053%=      5-min Rain = 0
KCA2 171227Z 02001KT 12/03 A301 RMK A01 T01200029  RH  054%=      5-min Rain = 0
KCA2 171228Z 01001KT 12/03 A3011 RMK A01 T01200030  RH  054%=      5-min Rain = 0
KCA2 171229Z 01001KT 12/03 A301 RMK A01 T01210029  RH  054%=      5-min Rain = 0
KCA2 171230Z 01001KT 12/03 A301 RMK A01 T01210029  RH  053%=      5-min Rain = 0
KCA2 171231Z 01001KT 12/03 A301 RMK A01 T01210029  RH  053%=      5-min Rain = 0
KCA2 171232Z 36002KT 12/03 A301 RMK A01 T01220030  RH  054%=      5-min Rain = 0
KCA2 171233Z 35002KT 12/03 A301 RMK A01 T01220030  RH  053%=      5-min Rain = 0
KCA2 171234Z 35002KT 12/03 A3011 RMK A01 T01230030  RH  053%=      5-min Rain = 0
KCA2 171235Z 35002KT 12/03 A3011 RMK A01 T01230030  RH  053%=      5-min Rain = 0
KCA2 171236Z 34002KT 12/03 A3011 RMK A01 T01230030  RH  053%=      5-min Rain = 0
KCA2 171237Z 34002KT 12/03 A3011 RMK A01 T01230031  RH  053%=      5-min Rain = 0
KCA2 171238Z 33002KT 12/03 A3011 RMK A01 T01230032  RH  054%=      5-min Rain = 0
KCA2 171239Z 32002KT 12/03 A3011 RMK A01 T01230033  RH  054%=      5-min Rain = 0
KCA2 171240Z 31002KT 12/03 A3011 RMK A01 T01230034  RH  055%=      5-min Rain = 0
KCA2 171241Z 30002KT 12/04 A3011 RMK A01 T01240036  RH  055%=      5-min Rain = 0
KCA2 171242Z 30002KT 12/04 A3011 RMK A01 T01240036  RH  055%=      5-min Rain = 0
KCA2 171243Z 31002KT 12/04 A3011 RMK A01 T01240037  RH  055%=      5-min Rain = 0
KCA2 171244Z 31002KT 12/04 A3011 RMK A01 T01240036  RH  055%=      5-min Rain = 0
KCA2 171245Z 31002KT 12/04 A3011 RMK A01 T01230035  RH  055%=      5-min Rain = 0
KCA2 171246Z 32002KT 12/04 A3011 RMK A01 T01230035  RH  055%=      5-min Rain = 0
KCA2 171247Z 31002KT 12/03 A3011 RMK A01 T01230034  RH  055%=      5-min Rain = 0
KCA2 171248Z 31003KT 12/03 A3011 RMK A01 T01220032  RH  054%=      5-min Rain = 0
KCA2 171249Z 31002KT 12/03 A3011 RMK A01 T01210031  RH  054%=      5-min Rain = 0
KCA2 171250Z 32001KT 12/03 A3011 RMK A01 T01210031  RH  054%=      5-min Rain = 0
KCA2 171251Z 34001KT 12/03 A3011 RMK A01 T01200031  RH  054%=      5-min Rain = 0
KCA2 171252Z 35001KT 12/03 A3011 RMK A01 T01200030  RH  054%=      5-min Rain = 0
KCA2 171253Z 35001KT 12/03 A3011 RMK A01 T01200030  RH  054%=      5-min Rain = 0
KCA2 171254Z 35001KT 12/03 A3011 RMK A01 T01200031  RH  054%=      5-min Rain = 0
KCA2 171255Z 26000KT 12/03 A3011 RMK A01 T01190029  RH  054%=      5-min Rain = 0
KCA2 171256Z 27001KT 12/03 A3011 RMK A01 T01180028  RH  054%=      5-min Rain = 0
KCA2 171257Z 27001KT 12/03 A3011 RMK A01 T01170030  RH  055%=      5-min Rain = 0
KCA2 171258Z 26001KT 12/03 A3011 RMK A01 T01170032  RH  056%=      5-min Rain = 0
KCA2 171259Z 26000KT 12/03 A3011 RMK A01 T01180031  RH  055%=      5-min Rain = 0
KCA2 171300Z 27001KT 12/03 A3011 RMK A01 T01180027  RH  054%=      5-min Rain = 0
KCA2 171301Z 27002KT 12/03 A3011 RMK A01 T01180032  RH  056%=      5-min Rain = 0
KCA2 171302Z 29002KT 12/04 A3011 RMK A01 T01180037  RH  058%=      5-min Rain = 0
KCA2 171303Z 31001KT 12/04 A3011 RMK A01 T01180039  RH  059%=      5-min Rain = 0
KCA2 171304Z 32001KT 12/04 A3011 RMK A01 T01180039  RH  058%=      5-min Rain = 0
KCA2 171305Z 34001KT 12/04 A3011 RMK A01 T01180036  RH  057%=      5-min Rain = 0
KCA2 171306Z 34001KT 12/04 A3011 RMK A01 T01200035  RH  056%=      5-min Rain = 0
KCA2 171307Z 34000KT 12/03 A3011 RMK A01 T01200034  RH  056%=      5-min Rain = 0
KCA2 171308Z 00000KT 12/03 A3011 RMK A01 T01210032  RH  055%=      5-min Rain = 0
KCA2 171309Z 00000KT 12/03 A3011 RMK A01 T01200026  RH  053%=      5-min Rain = 0
KCA2 171310Z 00000KT 12/02 A3011 RMK A01 T01190024  RH  052%=      5-min Rain = 0
KCA2 171311Z 26000KT 12/03 A3011 RMK A01 T01190026  RH  053%=      5-min Rain = 0
KCA2 171312Z 26001KT 12/03 A3011 RMK A01 T01180026  RH  053%=      5-min Rain = 0
KCA2 171313Z 26001KT 12/03 A3011 RMK A01 T01180030  RH  055%=      5-min Rain = 0
KCA2 171314Z 26001KT 12/03 A3011 RMK A01 T01180026  RH  053%=      5-min Rain = 0
KCA2 171315Z 26001KT 12/03 A3011 RMK A01 T01180025  RH  053%=      5-min Rain = 0
KCA2 171316Z 26001KT 12/03 A3011 RMK A01 T01180025  RH  053%=      5-min Rain = 0
KCA2 171317Z 25001KT 12/03 A3011 RMK A01 T01180028  RH  054%=      5-min Rain = 0
KCA2 171318Z 25001KT 12/03 A3011 RMK A01 T01190032  RH  055%=      5-min Rain = 0
KCA2 171319Z 25001KT 12/03 A3011 RMK A01 T01200033  RH  055%=      5-min Rain = 0
KCA2 171320Z 25001KT 12/03 A3011 RMK A01 T01210033  RH  055%=      5-min Rain = 0
KCA2 171321Z 25001KT 12/03 A3011 RMK A01 T01220030  RH  053%=      5-min Rain = 0
KCA2 171322Z 25000KT 12/03 A3011 RMK A01 T01240029  RH  052%=      5-min Rain = 0
KCA2 171323Z 25000KT 13/03 A3011 RMK A01 T01260029  RH  052%=      5-min Rain = 0
KCA2 171324Z 00000KT 13/03 A3011 RMK A01 T01270030  RH  052%=      5-min Rain = 0
KCA2 171325Z 00000KT 13/03 A3011 RMK A01 T01280029  RH  051%=      5-min Rain = 0
KCA2 171326Z 04000KT 13/03 A3011 RMK A01 T01290028  RH  050%=      5-min Rain = 0
KCA2 171327Z 04001KT 13/03 A3011 RMK A01 T01290028  RH  050%=      5-min Rain = 0
KCA2 171328Z 03000KT 13/03 A3011 RMK A01 T01290028  RH  050%=      5-min Rain = 0
KCA2 171329Z 00000KT 13/03 A3011 RMK A01 T01290028  RH  051%=      5-min Rain = 0
KCA2 171330Z 00000KT 13/03 A3011 RMK A01 T01290029  RH  051%=      5-min Rain = 0
KCA2 171331Z 29001KT 13/03 A3011 RMK A01 T01290030  RH  051%=      5-min Rain = 0
KCA2 171332Z 29001KT 13/03 A3011 RMK A01 T01300031  RH  051%=      5-min Rain = 0
KCA2 171333Z 32001KT 13/03 A3011 RMK A01 T01310032  RH  051%=      5-min Rain = 0
KCA2 171334Z 33001KT 13/03 A3011 RMK A01 T01330032  RH  051%=      5-min Rain = 0
KCA2 171335Z 36000KT 13/03 A3011 RMK A01 T01340032  RH  050%=      5-min Rain = 0
KCA2 171336Z 31000KT 14/03 A3011 RMK A01 T01350031  RH  049%=      5-min Rain = 0
KCA2 171337Z 31001KT 14/03 A3011 RMK A01 T01360032  RH  050%=      5-min Rain = 0
KCA2 171338Z 32001KT 14/03 A3011 RMK A01 T01360032  RH  049%=      5-min Rain = 0
KCA2 171339Z 35001KT 14/03 A3011 RMK A01 T01360031  RH  049%=      5-min Rain = 0
KCA2 171340Z 00001KT 14/03 A3011 RMK A01 T01360031  RH  049%=      5-min Rain = 0
KCA2 171341Z 34001KT 14/03 A3011 RMK A01 T01360030  RH  049%=      5-min Rain = 0
KCA2 171342Z 33001KT 14/03 A3011 RMK A01 T01350029  RH  049%=      5-min Rain = 0
KCA2 171343Z 34001KT 13/03 A3011 RMK A01 T01340029  RH  049%=      5-min Rain = 0
KCA2 171344Z 32001KT 13/03 A3011 RMK A01 T01330030  RH  050%=      5-min Rain = 0
KCA2 171345Z 32001KT 13/03 A3011 RMK A01 T01330030  RH  050%=      5-min Rain = 0
KCA2 171346Z 32001KT 13/03 A3011 RMK A01 T01340031  RH  050%=      5-min Rain = 0
KCA2 171347Z 32001KT 14/03 A3011 RMK A01 T01350032  RH  050%=      5-min Rain = 0
KCA2 171348Z 33001KT 14/03 A3011 RMK A01 T01360034  RH  050%=      5-min Rain = 0
KCA2 171349Z 34001KT 14/04 A3011 RMK A01 T01380035  RH  050%=      5-min Rain = 0
KCA2 171350Z 33001KT 14/04 A3011 RMK A01 T01390036  RH  050%=      5-min Rain = 0
KCA2 171351Z 31001KT 14/04 A3011 RMK A01 T01410035  RH  049%=      5-min Rain = 0
KCA2 171352Z 30001KT 14/03 A3011 RMK A01 T01410034  RH  049%=      5-min Rain = 0
KCA2 171353Z 31002KT 14/03 A3011 RMK A01 T01410033  RH  048%=      5-min Rain = 0
KCA2 171354Z 31002KT 14/03 A3011 RMK A01 T01410034  RH  048%=      5-min Rain = 0
KCA2 171355Z 32002KT 14/04 A3011 RMK A01 T01410035  RH  049%=      5-min Rain = 0
KCA2 171356Z 32002KT 14/04 A3011 RMK A01 T01410035  RH  049%=      5-min Rain = 0
KCA2 171357Z 31002KT 14/04 A3011 RMK A01 T01410036  RH  049%=      5-min Rain = 0
KCA2 171358Z 31002KT 14/04 A3012 RMK A01 T01420037  RH  049%=      5-min Rain = 0
KCA2 171359Z 30003KT 14/04 A3012 RMK A01 T01430038  RH  049%=      5-min Rain = 0
KCA2 171400Z 29003KT 14/04 A3012 RMK A01 T01430038  RH  049%=      5-min Rain = 0
KCA2 171401Z 30003KT 14/04 A3012 RMK A01 T01440038  RH  049%=      5-min Rain = 0
KCA2 171402Z 31002KT 14/04 A3012 RMK A01 T01440037  RH  049%=      5-min Rain = 0
KCA2 171403Z 32002KT 15/04 A3012 RMK A01 T01450038  RH  048%=      5-min Rain = 0
KCA2 171404Z 31002KT 15/04 A3012 RMK A01 T01460038  RH  048%=      5-min Rain = 0
KCA2 171405Z 31002KT 15/04 A3012 RMK A01 T01470038  RH  048%=      5-min Rain = 0
KCA2 171406Z 30002KT 15/04 A3012 RMK A01 T01470038  RH  048%=      5-min Rain = 0
KCA2 171407Z 29002KT 15/04 A3012 RMK A01 T01480039  RH  048%=      5-min Rain = 0
KCA2 171408Z 30002KT 15/04 A3012 RMK A01 T01490039  RH  048%=      5-min Rain = 0
KCA2 171409Z 30002KT 15/04 A3012 RMK A01 T01500040  RH  048%=      5-min Rain = 0
KCA2 171410Z 30001KT 15/04 A3012 RMK A01 T01510040  RH  047%=      5-min Rain = 0
KCA2 171411Z 30001KT 15/04 A3012 RMK A01 T01520040  RH  047%=      5-min Rain = 0
KCA2 171412Z 26001KT 15/04 A3012 RMK A01 T01530042  RH  047%=      5-min Rain = 0
KCA2 171413Z 23001KT 15/04 A3012 RMK A01 T01540044  RH  048%=      5-min Rain = 0
KCA2 171414Z 24001KT 15/04 A3012 RMK A01 T01540044  RH  048%=      5-min Rain = 0
KCA2 171415Z 24001KT 16/04 A3012 RMK A01 T01550043  RH  047%=      5-min Rain = 0
KCA2 171416Z 23000KT 16/04 A3012 RMK A01 T01560044  RH  047%=      5-min Rain = 0
KCA2 171417Z 25001KT 16/04 A3012 RMK A01 T01570043  RH  047%=      5-min Rain = 0
KCA2 171418Z 24001KT 16/05 A3012 RMK A01 T01570045  RH  047%=      5-min Rain = 0
KCA2 171419Z 25001KT 16/05 A3012 RMK A01 T01560045  RH  047%=      5-min Rain = 0
KCA2 171420Z 25001KT 16/05 A3012 RMK A01 T01560045  RH  047%=      5-min Rain = 0
KCA2 171421Z 25001KT 16/05 A3012 RMK A01 T01570045  RH  047%=      5-min Rain = 0
KCA2 171422Z 27000KT 16/05 A3012 RMK A01 T01570045  RH  047%=      5-min Rain = 0
KCA2 171423Z 00000KT 16/04 A3012 RMK A01 T01580044  RH  047%=      5-min Rain = 0
KCA2 171424Z 00000KT 16/04 A3012 RMK A01 T01590044  RH  047%=      5-min Rain = 0
KCA2 171425Z 00000KT 16/04 A3012 RMK A01 T01600044  RH  046%=      5-min Rain = 0
KCA2 171426Z 26000KT 16/04 A3012 RMK A01 T01610044  RH  046%=      5-min Rain = 0
KCA2 171427Z 26000KT 16/05 A3012 RMK A01 T01640045  RH  045%=      5-min Rain = 0
KCA2 171428Z 27000KT 17/05 A3012 RMK A01 T01660046  RH  045%=      5-min Rain = 0
KCA2 171429Z 29001KT 17/05 A3012 RMK A01 T01670046  RH  045%=      5-min Rain = 0
KCA2 171430Z 26001KT 17/05 A3012 RMK A01 T01680046  RH  044%=      5-min Rain = 0
KCA2 171431Z 25001KT 17/05 A3012 RMK A01 T01660045  RH  044%=      5-min Rain = 0
KCA2 171432Z 24001KT 17/05 A3012 RMK A01 T01660046  RH  045%=      5-min Rain = 0
KCA2 171433Z 25000KT 17/05 A3012 RMK A01 T01660046  RH  045%=      5-min Rain = 0
KCA2 171434Z 27000KT 17/04 A3012 RMK A01 T01670044  RH  044%=      5-min Rain = 0
KCA2 171435Z 00000KT 17/05 A3012 RMK A01 T01670045  RH  044%=      5-min Rain = 0
KCA2 171436Z 18000KT 17/05 A3012 RMK A01 T01670045  RH  044%=      5-min Rain = 0
KCA2 171437Z 22000KT 17/05 A3012 RMK A01 T01670045  RH  044%=      5-min Rain = 0
KCA2 171438Z 00000KT 17/05 A3012 RMK A01 T01670046  RH  044%=      5-min Rain = 0
KCA2 171439Z 13000KT 17/05 A3012 RMK A01 T01680046  RH  044%=      5-min Rain = 0
KCA2 171440Z 13002KT 17/05 A3012 RMK A01 T01700046  RH  044%=      5-min Rain = 0
KCA2 171441Z 12002KT 17/05 A3013 RMK A01 T01720047  RH  044%=      5-min Rain = 0
KCA2 171442Z 15001KT 17/05 A3012 RMK A01 T01730047  RH  043%=      5-min Rain = 0
KCA2 171443Z 13001KT 18/05 A3012 RMK A01 T01750048  RH  043%=      5-min Rain = 0
KCA2 171444Z 15001KT 18/05 A3012 RMK A01 T01750048  RH  043%=      5-min Rain = 0
KCA2 171445Z 16002KT 18/05 A3012 RMK A01 T01750048  RH  043%=      5-min Rain = 0
KCA2 171446Z 16002KT 18/05 A3012 RMK A01 T01750048  RH  043%=      5-min Rain = 0
KCA2 171447Z 15002KT 18/05 A3012 RMK A01 T01760048  RH  043%=      5-min Rain = 0
KCA2 171448Z 15002KT 18/05 A3012 RMK A01 T01770049  RH  043%=      5-min Rain = 0
KCA2 171449Z 16002KT 18/05 A3012 RMK A01 T01780049  RH  043%=      5-min Rain = 0
KCA2 171450Z 18002KT 18/05 A3012 RMK A01 T01800050  RH  042%=      5-min Rain = 0
KCA2 171451Z 17002KT 18/05 A3012 RMK A01 T01800049  RH  042%=      5-min Rain = 0
KCA2 171452Z 16002KT 18/05 A3012 RMK A01 T01800050  RH  042%=      5-min Rain = 0
KCA2 171453Z 20002KT 18/05 A3012 RMK A01 T01800051  RH  043%=      5-min Rain = 0
KCA2 171454Z 22002KT 18/05 A3012 RMK A01 T01800053  RH  043%=      5-min Rain = 0
KCA2 171455Z 23002KT 18/05 A3012 RMK A01 T01790054  RH  044%=      5-min Rain = 0
KCA2 171456Z 24002KT 18/06 A3012 RMK A01 T01780056  RH  045%=      5-min Rain = 0
KCA2 171457Z 24002KT 18/06 A3012 RMK A01 T01770055  RH  045%=      5-min Rain = 0
KCA2 171458Z 25002KT 18/06 A3012 RMK A01 T01760055  RH  045%=      5-min Rain = 0
KCA2 171459Z 23002KT 18/06 A3012 RMK A01 T01760055  RH  045%=      5-min Rain = 0
KCA2 171500Z 22002KT 18/05 A3012 RMK A01 T01770054  RH  044%=      5-min Rain = 0
KCA2 171501Z 21002KT 18/05 A3012 RMK A01 T01780053  RH  044%=      5-min Rain = 0
KCA2 171502Z 20002KT 18/05 A3012 RMK A01 T01780052  RH  043%=      5-min Rain = 0
KCA2 171503Z 21002KT 18/05 A3012 RMK A01 T01780053  RH  044%=      5-min Rain = 0
KCA2 171504Z 19003KT 18/05 A3012 RMK A01 T01790053  RH  044%=      5-min Rain = 0
KCA2 171505Z 21003KT 18/05 A3012 RMK A01 T01810054  RH  043%=      5-min Rain = 0
KCA2 171506Z 22003KT 18/06 A3012 RMK A01 T01820055  RH  043%=      5-min Rain = 0
KCA2 171507Z 22002KT 18/06 A3012 RMK A01 T01840056  RH  043%=      5-min Rain = 0
KCA2 171508Z 22002KT 18/06 A3012 RMK A01 T01840056  RH  043%=      5-min Rain = 0
KCA2 171509Z 22002KT 19/06 A3012 RMK A01 T01850057  RH  043%=      5-min Rain = 0
KCA2 171510Z 24003KT 19/06 A3012 RMK A01 T01850058  RH  043%=      5-min Rain = 0
KCA2 171511Z 22004KT 19/06 A3013 RMK A01 T01850058  RH  043%=      5-min Rain = 0
KCA2 171512Z 20002KT 18/06 A3013 RMK A01 T01840058  RH  044%=      5-min Rain = 0
KCA2 171513Z 21002KT 18/06 A3013 RMK A01 T01840059  RH  044%=      5-min Rain = 0
KCA2 171514Z 19003KT 19/06 A3013 RMK A01 T01860060  RH  044%=      5-min Rain = 0
KCA2 171515Z 24002KT 19/06 A3013 RMK A01 T01870060  RH  044%=      5-min Rain = 0
KCA2 171516Z 20002KT 19/06 A3013 RMK A01 T01880061  RH  043%=      5-min Rain = 0
KCA2 171517Z 21004KT 19/06 A3013 RMK A01 T01900061  RH  043%=      5-min Rain = 0
KCA2 171518Z 20003KT 19/06 A3012 RMK A01 T01920062  RH  043%=      5-min Rain = 0
KCA2 171519Z 20004KT 19/06 A3012 RMK A01 T01920062  RH  043%=      5-min Rain = 0
KCA2 171520Z 18004KT 19/06 A3012 RMK A01 T01930063  RH  043%=      5-min Rain = 0
KCA2 171521Z 18004KT 20/06 A3012 RMK A01 T01950063  RH  042%=      5-min Rain = 0
KCA2 171522Z 18004KT 20/06 A3012 RMK A01 T01960063  RH  042%=      5-min Rain = 0
KCA2 171523Z 19003KT 20/06 A3012 RMK A01 T01960064  RH  042%=      5-min Rain = 0
KCA2 171524Z 17004KT 20/07 A3013 RMK A01 T01970065  RH  042%=      5-min Rain = 0
KCA2 171525Z 17003KT 20/07 A3013 RMK A01 T01980066  RH  042%=      5-min Rain = 0
KCA2 171526Z 18004KT 20/07 A3013 RMK A01 T02010067  RH  042%=      5-min Rain = 0
KCA2 171527Z 17006KT 20/07 A3012 RMK A01 T02030067  RH  041%=      5-min Rain = 0
KCA2 171528Z 17006KT 20/07 A3012 RMK A01 T02040067  RH  041%=      5-min Rain = 0
KCA2 171529Z 17006KT 21/07 A3012 RMK A01 T02050068  RH  041%=      5-min Rain = 0
KCA2 171530Z 16007KT 21/07 A3012 RMK A01 T02060069  RH  041%=      5-min Rain = 0
KCA2 171531Z 16006KT 21/07 A3012 RMK A01 T02060068  RH  041%=      5-min Rain = 0
KCA2 171532Z 17004KT 21/07 A3012 RMK A01 T02070069  RH  041%=      5-min Rain = 0
KCA2 171533Z 17007KT 21/07 A3012 RMK A01 T02080069  RH  041%=      5-min Rain = 0
KCA2 171534Z 17007KT 21/07 A3012 RMK A01 T02090069  RH  040%=      5-min Rain = 0
KCA2 171535Z 17006KT 21/07 A3012 RMK A01 T02090069  RH  040%=      5-min Rain = 0
KCA2 171536Z 15008KT 21/07 A3012 RMK A01 T02100070  RH  040%=      5-min Rain = 0
KCA2 171537Z 14006KT 21/07 A3012 RMK A01 T02100070  RH  040%=      5-min Rain = 0
KCA2 171538Z 16005KT 21/07 A3012 RMK A01 T02100072  RH  041%=      5-min Rain = 0
KCA2 171539Z 14008KT 21/07 A3012 RMK A01 T02110072  RH  040%=      5-min Rain = 0
KCA2 171540Z 12007KT 21/07 A3012 RMK A01 T02130071  RH  040%=      5-min Rain = 0
KCA2 171541Z 14007KT 21/07 A3012 RMK A01 T02140071  RH  040%=      5-min Rain = 0
KCA2 171542Z 16008KT 21/07 A3012 RMK A01 T02130071  RH  040%=      5-min Rain = 0
KCA2 171543Z 16007KT 21/07 A3012 RMK A01 T02140072  RH  040%=      5-min Rain = 0
KCA2 171544Z 16009KT 22/07 A3012 RMK A01 T02150071  RH  039%=      5-min Rain = 0
KCA2 171545Z 16010KT 22/07 A3012 RMK A01 T02160071  RH  039%=      5-min Rain = 0
KCA2 171546Z 16009KT 22/07 A3012 RMK A01 T02160071  RH  039%=      5-min Rain = 0
KCA2 171547Z 15009KT 22/07 A3012 RMK A01 T02160072  RH  039%=      5-min Rain = 0
KCA2 171548Z 16007KT 22/07 A3012 RMK A01 T02160072  RH  039%=      5-min Rain = 0
KCA2 171549Z 15009KT 22/07 A3012 RMK A01 T02160071  RH  039%=      5-min Rain = 0
KCA2 171550Z 15009KT 22/07 A3012 RMK A01 T02170072  RH  039%=      5-min Rain = 0
KCA2 171551Z 15009KT 22/07 A3012 RMK A01 T02170072  RH  039%=      5-min Rain = 0
KCA2 171552Z 15009KT 22/07 A3012 RMK A01 T02180073  RH  039%=      5-min Rain = 0
KCA2 171553Z 16009KT 22/07 A3012 RMK A01 T02200074  RH  039%=      5-min Rain = 0
KCA2 171554Z 14007KT 22/07 A3012 RMK A01 T02210074  RH  039%=      5-min Rain = 0
KCA2 171555Z 15010KT 22/08 A3012 RMK A01 T02230075  RH  039%=      5-min Rain = 0
KCA2 171556Z 15011KT 22/08 A3012 RMK A01 T02230075  RH  038%=      5-min Rain = 0
KCA2 171557Z 15011KT 22/07 A3012 RMK A01 T02230073  RH  038%=      5-min Rain = 0
KCA2 171558Z 16010KT 22/08 A3012 RMK A01 T02220075  RH  039%=      5-min Rain = 0
KCA2 171559Z 15011KT 22/07 A3012 RMK A01 T02220074  RH  038%=      5-min Rain = 0
KCA2 171600Z 15010KT 22/07 A3012 RMK A01 T02210074  RH  039%=      5-min Rain = 0
KCA2 171601Z 16010KT 22/07 A3012 RMK A01 T02210074  RH  039%=      5-min Rain = 0
KCA2 171602Z 16011KT 22/07 A3012 RMK A01 T02200074  RH  039%=      5-min Rain = 0
KCA2 171603Z 16012KT 22/07 A3012 RMK A01 T02200074  RH  039%=      5-min Rain = 0
KCA2 171604Z 16013KT 22/07 A3011 RMK A01 T02210073  RH  038%=      5-min Rain = 0
KCA2 171605Z 16009KT 22/07 A3011 RMK A01 T02200074  RH  039%=      5-min Rain = 0
KCA2 171606Z 15008KT 22/08 A3012 RMK A01 T02210075  RH  039%=      5-min Rain = 0
KCA2 171607Z 15007KT 22/08 A3012 RMK A01 T02230077  RH  039%=      5-min Rain = 0
KCA2 171608Z 15011KT 23/08 A3012 RMK A01 T02260077  RH  038%=      5-min Rain = 0
KCA2 171609Z 15010KT 23/08 A3011 RMK A01 T02260075  RH  038%=      5-min Rain = 0
KCA2 171610Z 15009KT 23/08 A3011 RMK A01 T02260075  RH  038%=      5-min Rain = 0
KCA2 171611Z 14011KT 23/08 A3011 RMK A01 T02260076  RH  038%=      5-min Rain = 0
KCA2 171612Z 13011KT 23/07 A3011 RMK A01 T02250074  RH  038%=      5-min Rain = 0
KCA2 171613Z 14010KT 22/07 A3011 RMK A01 T02240074  RH  038%=      5-min Rain = 0
KCA2 171614Z 14008KT 22/08 A3011 RMK A01 T02230075  RH  039%=      5-min Rain = 0
KCA2 171615Z 13012KT 23/08 A3011 RMK A01 T02250077  RH  038%=      5-min Rain = 0
KCA2 171616Z 14011KT 23/08 A3011 RMK A01 T02270075  RH  038%=      5-min Rain = 0
KCA2 171617Z 15011KT 23/07 A3011 RMK A01 T02270074  RH  037%=      5-min Rain = 0
KCA2 171618Z 15011KT 23/07 A3011 RMK A01 T02270074  RH  037%=      5-min Rain = 0
KCA2 171619Z 15010KT 23/07 A3011 RMK A01 T02270073  RH  037%=      5-min Rain = 0
KCA2 171620Z 15010KT 23/07 A3011 RMK A01 T02260074  RH  038%=      5-min Rain = 0
KCA2 171621Z 15010KT 23/07 A3011 RMK A01 T02260074  RH  038%=      5-min Rain = 0
KCA2 171622Z 14013KT 23/07 A3011 RMK A01 T02280074  RH  037%=      5-min Rain = 0
KCA2 171623Z 14012KT 23/07 A3011 RMK A01 T02270074  RH  037%=      5-min Rain = 0
KCA2 171624Z 14010KT 23/07 A3011 RMK A01 T02270073  RH  037%=      5-min Rain = 0
KCA2 171625Z 14012KT 23/07 A3011 RMK A01 T02260074  RH  038%=      5-min Rain = 0
KCA2 171626Z 14010KT 23/07 A3011 RMK A01 T02260074  RH  037%=      5-min Rain = 0
KCA2 171627Z 14013KT 23/07 A3011 RMK A01 T02280072  RH  037%=      5-min Rain = 0
KCA2 171628Z 14010KT 23/07 A3011 RMK A01 T02290072  RH  037%=      5-min Rain = 0
KCA2 171629Z 12010KT 23/07 A3011 RMK A01 T02290072  RH  036%=      5-min Rain = 0
KCA2 171630Z 14009KT 23/07 A3011 RMK A01 T02300073  RH  036%=      5-min Rain = 0
KCA2 171631Z 14012KT 23/07 A3011 RMK A01 T02320072  RH  036%=      5-min Rain = 0
KCA2 171632Z 14011KT 23/07 A3011 RMK A01 T02310073  RH  036%=      5-min Rain = 0
KCA2 171633Z 14009KT 23/07 A3011 RMK A01 T02300074  RH  036%=      5-min Rain = 0
KCA2 171634Z 15011KT 23/07 A3011 RMK A01 T02310074  RH  036%=      5-min Rain = 0
KCA2 171635Z 15010KT 23/08 A3011 RMK A01 T02310075  RH  037%=      5-min Rain = 0
KCA2 171636Z 14009KT 23/08 A3011 RMK A01 T02320075  RH  037%=      5-min Rain = 0
KCA2 171637Z 14008KT 23/08 A3011 RMK A01 T02340076  RH  036%=      5-min Rain = 0
KCA2 171638Z 15008KT 23/07 A3011 RMK A01 T02340074  RH  036%=      5-min Rain = 0
KCA2 171639Z 14008KT 23/08 A3011 RMK A01 T02340075  RH  036%=      5-min Rain = 0
KCA2 171640Z 14009KT 24/07 A3011 RMK A01 T02350074  RH  036%=      5-min Rain = 0
KCA2 171641Z 13008KT 24/07 A3011 RMK A01 T02350074  RH  036%=      5-min Rain = 0
KCA2 171642Z 16009KT 24/08 A3011 RMK A01 T02360076  RH  036%=      5-min Rain = 0
KCA2 171643Z 15010KT 24/07 A3011 RMK A01 T02380074  RH  035%=      5-min Rain = 0
KCA2 171644Z 15007KT 24/08 A3011 RMK A01 T02370076  RH  036%=      5-min Rain = 0
KCA2 171645Z 16009KT 24/08 A3011 RMK A01 T02390077  RH  035%=      5-min Rain = 0
KCA2 171646Z 16010KT 24/08 A3011 RMK A01 T02400075  RH  035%=      5-min Rain = 0
KCA2 171647Z 16008KT 24/08 A3011 RMK A01 T02390077  RH  036%=      5-min Rain = 0
KCA2 171648Z 14009KT 24/08 A3011 RMK A01 T02380078  RH  036%=      5-min Rain = 0
KCA2 171649Z 14008KT 24/08 A3011 RMK A01 T02400079  RH  036%=      5-min Rain = 0
KCA2 171650Z 15009KT 24/08 A3011 RMK A01 T02410079  RH  035%=      5-min Rain = 0
KCA2 171651Z 15011KT 24/08 A3011 RMK A01 T02430078  RH  035%=      5-min Rain = 0
KCA2 171652Z 16009KT 24/08 A3011 RMK A01 T02420077  RH  035%=      5-min Rain = 0
KCA2 171653Z 16009KT 24/08 A3011 RMK A01 T02420076  RH  034%=      5-min Rain = 0
KCA2 171654Z 15007KT 24/08 A3011 RMK A01 T02420076  RH  035%=      5-min Rain = 0
KCA2 171655Z 15011KT 24/08 A3011 RMK A01 T02410077  RH  035%=      5-min Rain = 0
KCA2 171656Z 15011KT 24/08 A3011 RMK A01 T02430077  RH  035%=      5-min Rain = 0
KCA2 171657Z 16010KT 24/08 A301 RMK A01 T02430078  RH  035%=      5-min Rain = 0
KCA2 171658Z 14009KT 24/08 A301 RMK A01 T02440079  RH  035%=      5-min Rain = 0
KCA2 171659Z 14011KT 25/08 A301 RMK A01 T02450079  RH  035%=      5-min Rain = 0
KCA2 171700Z 15011KT 25/08 A301 RMK A01 T02460078  RH  034%=      5-min Rain = 0
KCA2 171701Z 15010KT 25/08 A301 RMK A01 T02470078  RH  034%=      5-min Rain = 0
KCA2 171702Z 15011KT 25/08 A301 RMK A01 T02470078  RH  034%=      5-min Rain = 0
KCA2 171703Z 15010KT 25/08 A301 RMK A01 T02480081  RH  034%=      5-min Rain = 0
KCA2 171704Z 15010KT 25/08 A301 RMK A01 T02470080  RH  035%=      5-min Rain = 0
KCA2 171705Z 15006KT 25/08 A301 RMK A01 T02470081  RH  035%=      5-min Rain = 0
KCA2 171706Z 15008KT 25/08 A301 RMK A01 T02480082  RH  035%=      5-min Rain = 0
KCA2 171707Z 16010KT 25/08 A301 RMK A01 T02500081  RH  034%=      5-min Rain = 0
KCA2 171708Z 15012KT 25/08 A301 RMK A01 T02490081  RH  034%=      5-min Rain = 0
KCA2 171709Z 15011KT 25/08 A301 RMK A01 T02490081  RH  034%=      5-min Rain = 0
KCA2 171710Z 14011KT 25/08 A301 RMK A01 T02490081  RH  034%=      5-min Rain = 0
KCA2 171711Z 14011KT 25/08 A301 RMK A01 T02490081  RH  034%=      5-min Rain = 0
KCA2 171712Z 14011KT 25/08 A301 RMK A01 T02480080  RH  034%=      5-min Rain = 0
KCA2 171713Z 14009KT 25/08 A301 RMK A01 T02480081  RH  034%=      5-min Rain = 0
KCA2 171714Z 13006KT 25/08 A301 RMK A01 T02490082  RH  034%=      5-min Rain = 0
KCA2 171715Z 13007KT 25/08 A301 RMK A01 T02520083  RH  034%=      5-min Rain = 0
KCA2 171716Z 14008KT 25/08 A3009 RMK A01 T02530082  RH  034%=      5-min Rain = 0
KCA2 171717Z 15007KT 25/08 A3009 RMK A01 T02530082  RH  034%=      5-min Rain = 0
KCA2 171718Z 15009KT 25/08 A3009 RMK A01 T02530084  RH  034%=      5-min Rain = 0
KCA2 171719Z 15008KT 26/08 A3009 RMK A01 T02560082  RH  033%=      5-min Rain = 0
KCA2 171720Z 16008KT 26/08 A3009 RMK A01 T02560083  RH  033%=      5-min Rain = 0
KCA2 171721Z 16010KT 26/08 A3009 RMK A01 T02570083  RH  033%=      5-min Rain = 0
KCA2 171722Z 16010KT 26/08 A3009 RMK A01 T02580083  RH  033%=      5-min Rain = 0
KCA2 171723Z 16009KT 26/08 A3009 RMK A01 T02570083  RH  033%=      5-min Rain = 0
KCA2 171724Z 15009KT 26/08 A3009 RMK A01 T02570082  RH  033%=      5-min Rain = 0
KCA2 171725Z 15010KT 26/08 A3009 RMK A01 T02550082  RH  033%=      5-min Rain = 0
KCA2 171726Z 15008KT 25/08 A3009 RMK A01 T02540083  RH  034%=      5-min Rain = 0
KCA2 171727Z 16007KT 26/08 A3009 RMK A01 T02560082  RH  033%=      5-min Rain = 0
KCA2 171728Z 16008KT 26/08 A3009 RMK A01 T02570083  RH  033%=      5-min Rain = 0
KCA2 171729Z 15009KT 26/08 A3009 RMK A01 T02590083  RH  033%=      5-min Rain = 0
KCA2 171730Z 14009KT 26/08 A3009 RMK A01 T02590083  RH  033%=      5-min Rain = 0
KCA2 171731Z 14008KT 26/08 A3009 RMK A01 T02580083  RH  033%=      5-min Rain = 0
KCA2 171732Z 14008KT 26/08 A3009 RMK A01 T02570083  RH  033%=      5-min Rain = 0
KCA2 171733Z 15009KT 26/08 A3009 RMK A01 T02580083  RH  033%=      5-min Rain = 0
KCA2 171734Z 15007KT 26/08 A3009 RMK A01 T02580083  RH  033%=      5-min Rain = 0
KCA2 171735Z 16009KT 26/08 A3009 RMK A01 T02590083  RH  033%=      5-min Rain = 0
KCA2 171736Z 16010KT 26/08 A3009 RMK A01 T02590083  RH  033%=      5-min Rain = 0
KCA2 171737Z 16007KT 26/08 A3009 RMK A01 T02590083  RH  033%=      5-min Rain = 0
KCA2 171738Z 14008KT 26/08 A3009 RMK A01 T02590084  RH  033%=      5-min Rain = 0
KCA2 171739Z 14008KT 26/08 A3009 RMK A01 T02600083  RH  033%=      5-min Rain = 0
KCA2 171740Z 13008KT 26/08 A3009 RMK A01 T02600084  RH  033%=      5-min Rain = 0
KCA2 171741Z 14008KT 26/08 A3009 RMK A01 T02600084  RH  033%=      5-min Rain = 0
KCA2 171742Z 13006KT 26/09 A3009 RMK A01 T02610085  RH  033%=      5-min Rain = 0
KCA2 171743Z 13005KT 26/09 A3009 RMK A01 T02630086  RH  033%=      5-min Rain = 0
KCA2 171744Z 15004KT 27/09 A3008 RMK A01 T02660087  RH  032%=      5-min Rain = 0
KCA2 171745Z 17008KT 27/09 A3008 RMK A01 T02700086  RH  031%=      5-min Rain = 0
KCA2 171746Z 15007KT 27/09 A3008 RMK A01 T02680085  RH  031%=      5-min Rain = 0
KCA2 171747Z 16005KT 27/09 A3008 RMK A01 T02650085  RH  032%=      5-min Rain = 0
KCA2 171748Z 16006KT 26/09 A3008 RMK A01 T02640086  RH  032%=      5-min Rain = 0
KCA2 171749Z 15009KT 27/09 A3008 RMK A01 T02660086  RH  032%=      5-min Rain = 0
KCA2 171750Z 13008KT 27/09 A3008 RMK A01 T02670086  RH  032%=      5-min Rain = 0
KCA2 171751Z 13008KT 27/09 A3008 RMK A01 T02670086  RH  032%=      5-min Rain = 0
KCA2 171752Z 13007KT 27/09 A3008 RMK A01 T02670087  RH  032%=      5-min Rain = 0
KCA2 171753Z 12007KT 27/09 A3008 RMK A01 T02680086  RH  032%=      5-min Rain = 0
KCA2 171754Z 14006KT 27/09 A3007 RMK A01 T02670086  RH  032%=      5-min Rain = 0
KCA2 171755Z 15007KT 27/09 A3007 RMK A01 T02660086  RH  032%=      5-min Rain = 0
KCA2 171756Z 14006KT 27/09 A3007 RMK A01 T02670087  RH  032%=      5-min Rain = 0
KCA2 171757Z 14006KT 27/09 A3007 RMK A01 T02700088  RH  032%=      5-min Rain = 0
KCA2 171758Z 15008KT 27/09 A3007 RMK A01 T02720087  RH  031%=      5-min Rain = 0
KCA2 171759Z 16007KT 27/09 A3007 RMK A01 T02730087  RH  031%=      5-min Rain = 0
KCA2 171800Z 17005KT 27/09 A3007 RMK A01 T02730087  RH  031%=      5-min Rain = 0
KCA2 171801Z 15008KT 27/09 A3007 RMK A01 T02730088  RH  031%=      5-min Rain = 0
KCA2 171802Z 15009KT 28/09 A3007 RMK A01 T02750088  RH  031%=      5-min Rain = 0
KCA2 171803Z 16009KT 27/09 A3007 RMK A01 T02740087  RH  031%=      5-min Rain = 0
KCA2 171804Z 15008KT 27/09 A3007 RMK A01 T02730087  RH  031%=      5-min Rain = 0
KCA2 171805Z 15005KT 27/09 A3007 RMK A01 T02700087  RH  031%=      5-min Rain = 0
KCA2 171806Z 15005KT 27/09 A3007 RMK A01 T02710089  RH  032%=      5-min Rain = 0
KCA2 171807Z 17007KT 27/09 A3006 RMK A01 T02740089  RH  031%=      5-min Rain = 0
KCA2 171808Z 15007KT 27/09 A3006 RMK A01 T02740089  RH  031%=      5-min Rain = 0
KCA2 171809Z 17006KT 28/09 A3006 RMK A01 T02750089  RH  031%=      5-min Rain = 0
KCA2 171810Z 16009KT 28/09 A3006 RMK A01 T02760089  RH  031%=      5-min Rain = 0
KCA2 171811Z 16009KT 28/09 A3006 RMK A01 T02780089  RH  031%=      5-min Rain = 0
KCA2 171812Z 15008KT 28/09 A3006 RMK A01 T02790089  RH  030%=      5-min Rain = 0
KCA2 171813Z 16009KT 28/09 A3006 RMK A01 T02770089  RH  031%=      5-min Rain = 0
KCA2 171814Z 17009KT 28/09 A3006 RMK A01 T02770088  RH  031%=      5-min Rain = 0
KCA2 171815Z 17008KT 28/09 A3006 RMK A01 T02770090  RH  031%=      5-min Rain = 0
KCA2 171816Z 14008KT 28/09 A3006 RMK A01 T02790089  RH  030%=      5-min Rain = 0
KCA2 171817Z 13006KT 28/09 A3006 RMK A01 T02800089  RH  030%=      5-min Rain = 0
KCA2 171818Z 16006KT 28/09 A3006 RMK A01 T02810091  RH  030%=      5-min Rain = 0
KCA2 171819Z 16009KT 28/09 A3005 RMK A01 T02820090  RH  030%=      5-min Rain = 0
KCA2 171820Z 15009KT 28/09 A3005 RMK A01 T02820090  RH  030%=      5-min Rain = 0
KCA2 171821Z 15007KT 28/09 A3005 RMK A01 T02810090  RH  030%=      5-min Rain = 0
KCA2 171822Z 13006KT 28/09 A3005 RMK A01 T02820090  RH  030%=      5-min Rain = 0
KCA2 171823Z 15007KT 28/09 A3005 RMK A01 T02830091  RH  030%=      5-min Rain = 0
KCA2 171824Z 16008KT 28/09 A3005 RMK A01 T02840090  RH  030%=      5-min Rain = 0
KCA2 171825Z 16008KT 28/09 A3005 RMK A01 T02830090  RH  030%=      5-min Rain = 0
KCA2 171826Z 16007KT 28/09 A3005 RMK A01 T02830090  RH  030%=      5-min Rain = 0
KCA2 171827Z 14006KT 29/09 A3005 RMK A01 T02850090  RH  029%=      5-min Rain = 0
KCA2 171828Z 15006KT 29/09 A3005 RMK A01 T02870092  RH  029%=      5-min Rain = 0
KCA2 171829Z 14008KT 29/09 A3005 RMK A01 T02890090  RH  029%=      5-min Rain = 0
KCA2 171830Z 14005KT 29/09 A3005 RMK A01 T02870089  RH  029%=      5-min Rain = 0
KCA2 171831Z 16008KT 29/09 A3005 RMK A01 T02850090  RH  029%=      5-min Rain = 0
KCA2 171832Z 16008KT 29/09 A3005 RMK A01 T02860089  RH  029%=      5-min Rain = 0
KCA2 171833Z 15006KT 29/09 A3004 RMK A01 T02860089  RH  029%=      5-min Rain = 0
KCA2 171834Z 16007KT 29/09 A3004 RMK A01 T02860090  RH  029%=      5-min Rain = 0
KCA2 171835Z 17008KT 29/09 A3004 RMK A01 T02860090  RH  029%=      5-min Rain = 0
KCA2 171836Z 16007KT 29/09 A3004 RMK A01 T02860090  RH  029%=      5-min Rain = 0
KCA2 171837Z 16007KT 29/09 A3004 RMK A01 T02870090  RH  029%=      5-min Rain = 0
KCA2 171838Z 15007KT 29/09 A3004 RMK A01 T02890090  RH  029%=      5-min Rain = 0
KCA2 171839Z 16008KT 29/09 A3004 RMK A01 T02890091  RH  029%=      5-min Rain = 0
KCA2 171840Z 15007KT 29/09 A3004 RMK A01 T02900091  RH  029%=      5-min Rain = 0
KCA2 171841Z 16006KT 29/09 A3004 RMK A01 T02920093  RH  029%=      5-min Rain = 0
KCA2 171842Z 16007KT 29/09 A3004 RMK A01 T02940092  RH  028%=      5-min Rain = 0
KCA2 171843Z 18007KT 29/09 A3004 RMK A01 T02940091  RH  028%=      5-min Rain = 0
KCA2 171844Z 15008KT 29/09 A3003 RMK A01 T02940091  RH  028%=      5-min Rain = 0
KCA2 171845Z 16006KT 29/09 A3003 RMK A01 T02940090  RH  028%=      5-min Rain = 0
KCA2 171846Z 16008KT 29/09 A3003 RMK A01 T02930091  RH  028%=      5-min Rain = 0
KCA2 171847Z 15005KT 29/09 A3003 RMK A01 T02940092  RH  028%=      5-min Rain = 0
KCA2 171848Z 16007KT 29/09 A3003 RMK A01 T02940093  RH  028%=      5-min Rain = 0
KCA2 171849Z 17007KT 30/09 A3003 RMK A01 T02970092  RH  028%=      5-min Rain = 0
KCA2 171850Z 15007KT 30/09 A3003 RMK A01 T02970094  RH  028%=      5-min Rain = 0
KCA2 171851Z 14008KT 30/09 A3003 RMK A01 T02980093  RH  028%=      5-min Rain = 0
KCA2 171852Z 15008KT 30/09 A3003 RMK A01 T02990093  RH  028%=      5-min Rain = 0
KCA2 171853Z 16007KT 30/09 A3003 RMK A01 T02980093  RH  028%=      5-min Rain = 0
KCA2 171854Z 16005KT 30/09 A3003 RMK A01 T02980092  RH  028%=      5-min Rain = 0
KCA2 171855Z 17005KT 30/09 A3003 RMK A01 T02960093  RH  028%=      5-min Rain = 0
KCA2 171856Z 16008KT 30/09 A3002 RMK A01 T02980094  RH  028%=      5-min Rain = 0
KCA2 171857Z 15008KT 30/09 A3002 RMK A01 T03000093  RH  028%=      5-min Rain = 0
KCA2 171858Z 16007KT 30/09 A3002 RMK A01 T03010094  RH  028%=      5-min Rain = 0
KCA2 171859Z 16007KT 30/09 A3002 RMK A01 T03020094  RH  027%=      5-min Rain = 0
KCA2 171900Z 15006KT 30/09 A3002 RMK A01 T03040094  RH  027%=      5-min Rain = 0
KCA2 171901Z 14007KT 31/09 A3002 RMK A01 T03050094  RH  027%=      5-min Rain = 0
KCA2 171902Z 17006KT 31/09 A3002 RMK A01 T03050094  RH  027%=      5-min Rain = 0
KCA2 171903Z 17008KT 30/09 A3002 RMK A01 T03040094  RH  027%=      5-min Rain = 0
KCA2 171904Z 16009KT 30/09 A3002 RMK A01 T03020093  RH  027%=      5-min Rain = 0
KCA2 171905Z 15008KT 30/09 A3002 RMK A01 T03010093  RH  027%=      5-min Rain = 0
KCA2 171906Z 16009KT 30/09 A3001 RMK A01 T03010093  RH  027%=      5-min Rain = 0
KCA2 171907Z 14007KT 30/09 A3001 RMK A01 T03020093  RH  027%=      5-min Rain = 0
KCA2 171908Z 15007KT 30/09 A3001 RMK A01 T03020093  RH  027%=      5-min Rain = 0
KCA2 171909Z 16006KT 30/09 A3001 RMK A01 T03010093  RH  027%=      5-min Rain = 0
KCA2 171910Z 17007KT 30/09 A3001 RMK A01 T03030094  RH  027%=      5-min Rain = 0
KCA2 171911Z 17008KT 31/09 A3001 RMK A01 T03050094  RH  027%=      5-min Rain = 0
KCA2 171912Z 15009KT 31/09 A3001 RMK A01 T03050094  RH  027%=      5-min Rain = 0
KCA2 171913Z 15008KT 31/09 A3001 RMK A01 T03050093  RH  027%=      5-min Rain = 0
KCA2 171914Z 14007KT 30/09 A3001 RMK A01 T03040093  RH  027%=      5-min Rain = 0
KCA2 171915Z 13007KT 31/09 A3001 RMK A01 T03050094  RH  027%=      5-min Rain = 0
KCA2 171916Z 14007KT 31/09 A30 RMK A01 T03060094  RH  027%=      5-min Rain = 0
KCA2 171917Z 16009KT 31/09 A30 RMK A01 T03060093  RH  027%=      5-min Rain = 0
KCA2 171918Z 16011KT 31/09 A30 RMK A01 T03060092  RH  026%=      5-min Rain = 0
KCA2 171919Z 16009KT 31/09 A30 RMK A01 T03060093  RH  027%=      5-min Rain = 0
KCA2 171920Z 16008KT 31/09 A30 RMK A01 T03080094  RH  027%=      5-min Rain = 0
KCA2 171921Z 15007KT 31/09 A30 RMK A01 T03100094  RH  026%=      5-min Rain = 0
KCA2 171922Z 14008KT 31/09 A30 RMK A01 T03100093  RH  026%=      5-min Rain = 0
KCA2 171923Z 14008KT 31/09 A30 RMK A01 T03100093  RH  026%=      5-min Rain = 0
KCA2 171924Z 14009KT 31/09 A30 RMK A01 T03090094  RH  026%=      5-min Rain = 0
KCA2 171925Z 15008KT 31/10 A2999 RMK A01 T03090095  RH  027%=      5-min Rain = 0
KCA2 171926Z 15008KT 31/10 A2999 RMK A01 T03110096  RH  026%=      5-min Rain = 0
KCA2 171927Z 14008KT 31/10 A2999 RMK A01 T03120095  RH  026%=      5-min Rain = 0
KCA2 171928Z 14007KT 31/09 A2999 RMK A01 T03090093  RH  026%=      5-min Rain = 0
KCA2 171929Z 13008KT 31/09 A2999 RMK A01 T03080093  RH  026%=      5-min Rain = 0
KCA2 171930Z 13007KT 31/09 A2999 RMK A01 T03080093  RH  026%=      5-min Rain = 0
KCA2 171931Z 15008KT 31/09 A2999 RMK A01 T03080093  RH  026%=      5-min Rain = 0
KCA2 171932Z 15008KT 31/09 A2999 RMK A01 T03100094  RH  026%=      5-min Rain = 0
KCA2 171933Z 14008KT 31/09 A2999 RMK A01 T03120092  RH  026%=      5-min Rain = 0
KCA2 171934Z 14008KT 31/09 A2999 RMK A01 T03120094  RH  026%=      5-min Rain = 0
KCA2 171935Z 16005KT 31/09 A2999 RMK A01 T03130093  RH  026%=      5-min Rain = 0
KCA2 171936Z 16005KT 31/09 A2998 RMK A01 T03120093  RH  026%=      5-min Rain = 0
KCA2 171937Z 13008KT 31/09 A2998 RMK A01 T03140094  RH  026%=      5-min Rain = 0
KCA2 171938Z 14008KT 32/09 A2998 RMK A01 T03160092  RH  025%=      5-min Rain = 0
KCA2 171939Z 15008KT 32/09 A2998 RMK A01 T03160092  RH  025%=      5-min Rain = 0
KCA2 171940Z 16006KT 32/09 A2998 RMK A01 T03170093  RH  025%=      5-min Rain = 0
KCA2 171941Z 17006KT 32/09 A2998 RMK A01 T03180093  RH  025%=      5-min Rain = 0
KCA2 171942Z 17004KT 32/09 A2998 RMK A01 T03200092  RH  024%=      5-min Rain = 0
KCA2 171943Z 15006KT 32/09 A2998 RMK A01 T03180094  RH  025%=      5-min Rain = 0
KCA2 171944Z 14008KT 32/09 A2998 RMK A01 T03190093  RH  025%=      5-min Rain = 0
KCA2 171945Z 15009KT 32/09 A2997 RMK A01 T03190091  RH  024%=      5-min Rain = 0
KCA2 171946Z 14007KT 32/09 A2997 RMK A01 T03190091  RH  024%=      5-min Rain = 0
KCA2 171947Z 12008KT 32/09 A2997 RMK A01 T03180092  RH  025%=      5-min Rain = 0
KCA2 171948Z 14008KT 32/09 A2997 RMK A01 T03180092  RH  025%=      5-min Rain = 0
KCA2 171949Z 13007KT 32/09 A2997 RMK A01 T03190091  RH  025%=      5-min Rain = 0
KCA2 171950Z 12006KT 32/09 A2997 RMK A01 T03180092  RH  025%=      5-min Rain = 0
KCA2 171951Z 11006KT 32/09 A2997 RMK A01 T03170093  RH  025%=      5-min Rain = 0
KCA2 171952Z 15006KT 32/09 A2997 RMK A01 T03180094  RH  025%=      5-min Rain = 0
KCA2 171953Z 15008KT 32/09 A2997 RMK A01 T03210094  RH  025%=      5-min Rain = 0
KCA2 171954Z 14008KT 32/09 A2997 RMK A01 T03210093  RH  024%=      5-min Rain = 0
KCA2 171955Z 16007KT 32/09 A2996 RMK A01 T03210093  RH  024%=      5-min Rain = 0
KCA2 171956Z 16007KT 32/09 A2996 RMK A01 T03210092  RH  024%=      5-min Rain = 0
KCA2 171957Z 16006KT 32/09 A2996 RMK A01 T03220094  RH  024%=      5-min Rain = 0
KCA2 171958Z 16010KT 32/09 A2996 RMK A01 T03220093  RH  024%=      5-min Rain = 0
KCA2 171959Z 15008KT 32/09 A2996 RMK A01 T03220092  RH  024%=      5-min Rain = 0
KCA2 172000Z 14006KT 32/09 A2996 RMK A01 T03230093  RH  024%=      5-min Rain = 0
KCA2 172001Z 12006KT 32/09 A2996 RMK A01 T03240093  RH  024%=      5-min Rain = 0
KCA2 172002Z 14005KT 33/09 A2996 RMK A01 T03250092  RH  024%=      5-min Rain = 0
KCA2 172003Z 15007KT 33/10 A2996 RMK A01 T03280096  RH  024%=      5-min Rain = 0
KCA2 172004Z 16007KT 33/10 A2996 RMK A01 T03310095  RH  023%=      5-min Rain = 0
KCA2 172005Z 17008KT 33/09 A2996 RMK A01 T03330094  RH  023%=      5-min Rain = 0
KCA2 172006Z 16008KT 33/09 A2995 RMK A01 T03300093  RH  023%=      5-min Rain = 0
KCA2 172007Z 17007KT 33/09 A2995 RMK A01 T03290092  RH  023%=      5-min Rain = 0
KCA2 172008Z 17008KT 33/09 A2995 RMK A01 T03290092  RH  023%=      5-min Rain = 0
KCA2 172009Z 17008KT 33/09 A2995 RMK A01 T03280090  RH  023%=      5-min Rain = 0
KCA2 172010Z 17008KT 33/09 A2995 RMK A01 T03260091  RH  023%=      5-min Rain = 0
KCA2 172011Z 18006KT 33/09 A2995 RMK A01 T03260090  RH  023%=      5-min Rain = 0
KCA2 172012Z 18005KT 33/09 A2995 RMK A01 T03270091  RH  023%=      5-min Rain = 0
KCA2 172013Z 18006KT 33/09 A2995 RMK A01 T03290092  RH  023%=      5-min Rain = 0
KCA2 172014Z 17006KT 33/09 A2995 RMK A01 T03300094  RH  023%=      5-min Rain = 0
KCA2 172015Z 15007KT 33/09 A2995 RMK A01 T03340094  RH  023%=      5-min Rain = 0
KCA2 172016Z 15007KT 33/09 A2995 RMK A01 T03340094  RH  023%=      5-min Rain = 0
KCA2 172017Z 16007KT 33/09 A2995 RMK A01 T03340094  RH  023%=      5-min Rain = 0
KCA2 172018Z 16007KT 33/09 A2995 RMK A01 T03330094  RH  023%=      5-min Rain = 0
KCA2 172019Z 13007KT 33/10 A2995 RMK A01 T03330095  RH  023%=      5-min Rain = 0
KCA2 172020Z 16007KT 33/09 A2995 RMK A01 T03330093  RH  023%=      5-min Rain = 0
KCA2 172021Z 17007KT 33/09 A2995 RMK A01 T03330093  RH  023%=      5-min Rain = 0
KCA2 172022Z 17007KT 33/09 A2994 RMK A01 T03320092  RH  023%=      5-min Rain = 0
KCA2 172023Z 16007KT 33/09 A2994 RMK A01 T03320093  RH  023%=      5-min Rain = 0
KCA2 172024Z 17006KT 33/09 A2994 RMK A01 T03320091  RH  023%=      5-min Rain = 0
KCA2 172025Z 19006KT 33/09 A2994 RMK A01 T03320091  RH  023%=      5-min Rain = 0
KCA2 172026Z 17007KT 33/09 A2994 RMK A01 T03320090  RH  022%=      5-min Rain = 0
KCA2 172027Z 16005KT 33/09 A2994 RMK A01 T03320089  RH  022%=      5-min Rain = 0
KCA2 172028Z 19005KT 33/09 A2994 RMK A01 T03300090  RH  023%=      5-min Rain = 0
KCA2 172029Z 17007KT 33/09 A2994 RMK A01 T03310090  RH  023%=      5-min Rain = 0
KCA2 172030Z 17005KT 33/09 A2994 RMK A01 T03320089  RH  022%=      5-min Rain = 0
KCA2 172031Z 16007KT 33/09 A2994 RMK A01 T03330091  RH  023%=      5-min Rain = 0
KCA2 172032Z 16009KT 33/09 A2994 RMK A01 T03340091  RH  022%=      5-min Rain = 0
KCA2 172033Z 17007KT 33/09 A2994 RMK A01 T03340091  RH  022%=      5-min Rain = 0
KCA2 172034Z 15007KT 33/09 A2994 RMK A01 T03330092  RH  023%=      5-min Rain = 0
KCA2 172035Z 15007KT 33/09 A2994 RMK A01 T03340093  RH  023%=      5-min Rain = 0
KCA2 172036Z 15007KT 34/09 A2994 RMK A01 T03350091  RH  022%=      5-min Rain = 0
KCA2 172037Z 15005KT 33/09 A2994 RMK A01 T03340093  RH  023%=      5-min Rain = 0
KCA2 172038Z 16008KT 34/09 A2994 RMK A01 T03350092  RH  022%=      5-min Rain = 0
KCA2 172039Z 14007KT 34/09 A2994 RMK A01 T03350090  RH  022%=      5-min Rain = 0
KCA2 172040Z 14006KT 34/09 A2994 RMK A01 T03350091  RH  022%=      5-min Rain = 0
KCA2 172041Z 14006KT 33/09 A2994 RMK A01 T03340090  RH  022%=      5-min Rain = 0
KCA2 172042Z 12005KT 33/09 A2993 RMK A01 T03320089  RH  022%=      5-min Rain = 0
KCA2 172043Z 15005KT 33/09 A2993 RMK A01 T03310089  RH  022%=      5-min Rain = 0
KCA2 172044Z 13003KT 33/09 A2993 RMK A01 T03330089  RH  022%=      5-min Rain = 0
KCA2 172045Z 14005KT 33/09 A2993 RMK A01 T03340091  RH  022%=      5-min Rain = 0
KCA2 172046Z 12006KT 34/09 A2993 RMK A01 T03360090  RH  022%=      5-min Rain = 0
KCA2 172047Z 14005KT 34/09 A2993 RMK A01 T03370090  RH  022%=      5-min Rain = 0
KCA2 172048Z 17006KT 34/09 A2993 RMK A01 T03380091  RH  022%=      5-min Rain = 0
KCA2 172049Z 15008KT 34/09 A2993 RMK A01 T03400091  RH  022%=      5-min Rain = 0
KCA2 172050Z 13007KT 34/09 A2993 RMK A01 T03410090  RH  022%=      5-min Rain = 0
KCA2 172051Z 14005KT 34/09 A2993 RMK A01 T03390091  RH  022%=      5-min Rain = 0
KCA2 172052Z 14008KT 34/09 A2993 RMK A01 T03370092  RH  022%=      5-min Rain = 0
KCA2 172053Z 12005KT 34/09 A2993 RMK A01 T03370091  RH  022%=      5-min Rain = 0
KCA2 172054Z 15004KT 34/09 A2993 RMK A01 T03370091  RH  022%=      5-min Rain = 0
KCA2 172055Z 16007KT 34/09 A2993 RMK A01 T03380092  RH  022%=      5-min Rain = 0
KCA2 172056Z 15007KT 34/09 A2992 RMK A01 T03380091  RH  022%=      5-min Rain = 0
KCA2 172057Z 14006KT 34/09 A2992 RMK A01 T03380091  RH  022%=      5-min Rain = 0
KCA2 172058Z 14006KT 34/09 A2992 RMK A01 T03370091  RH  022%=      5-min Rain = 0
KCA2 172059Z 15006KT 34/09 A2992 RMK A01 T03390091  RH  022%=      5-min Rain = 0
KCA2 172100Z 13007KT 34/09 A2992 RMK A01 T03410091  RH  022%=      5-min Rain = 0
KCA2 172101Z 12007KT 34/09 A2992 RMK A01 T03390091  RH  022%=      5-min Rain = 0
KCA2 172102Z 16008KT 34/09 A2992 RMK A01 T03370092  RH  022%=      5-min Rain = 0
KCA2 172103Z 16008KT 34/09 A2992 RMK A01 T03380092  RH  022%=      5-min Rain = 0
KCA2 172104Z 15007KT 34/09 A2992 RMK A01 T03400089  RH  021%=      5-min Rain = 0
KCA2 172105Z 14006KT 34/09 A2992 RMK A01 T03400089  RH  021%=      5-min Rain = 0
KCA2 172106Z 13007KT 34/09 A2992 RMK A01 T03410090  RH  021%=      5-min Rain = 0
KCA2 172107Z 15008KT 34/09 A2992 RMK A01 T03410090  RH  021%=      5-min Rain = 0
KCA2 172108Z 14009KT 34/09 A2992 RMK A01 T03400089  RH  021%=      5-min Rain = 0
KCA2 172109Z 14006KT 34/09 A2992 RMK A01 T03390088  RH  021%=      5-min Rain = 0
KCA2 172110Z 16005KT 34/09 A2992 RMK A01 T03380088  RH  021%=      5-min Rain = 0
KCA2 172111Z 16004KT 34/09 A2992 RMK A01 T03380087  RH  021%=      5-min Rain = 0
KCA2 172112Z 16002KT 34/09 A2992 RMK A01 T03380087  RH  021%=      5-min Rain = 0
KCA2 172113Z 16006KT 34/09 A2992 RMK A01 T03380088  RH  021%=      5-min Rain = 0
KCA2 172114Z 14006KT 34/09 A2992 RMK A01 T03410087  RH  021%=      5-min Rain = 0
KCA2 172115Z 12004KT 34/09 A2992 RMK A01 T03400086  RH  021%=      5-min Rain = 0
KCA2 172116Z 13004KT 34/09 A2992 RMK A01 T03390088  RH  021%=      5-min Rain = 0
KCA2 172117Z 12006KT 34/09 A2992 RMK A01 T03410090  RH  021%=      5-min Rain = 0
KCA2 172118Z 15007KT 34/09 A2991 RMK A01 T03410090  RH  021%=      5-min Rain = 0
KCA2 172119Z 16008KT 34/09 A2991 RMK A01 T03410088  RH  021%=      5-min Rain = 0
KCA2 172120Z 17006KT 34/09 A2991 RMK A01 T03420088  RH  021%=      5-min Rain = 0
KCA2 172121Z 16006KT 34/09 A2991 RMK A01 T03430089  RH  021%=      5-min Rain = 0
KCA2 172122Z 16008KT 35/09 A2991 RMK A01 T03450092  RH  021%=      5-min Rain = 0
KCA2 172123Z 16010KT 35/09 A2991 RMK A01 T03450091  RH  021%=      5-min Rain = 0
KCA2 172124Z 15009KT 34/09 A2991 RMK A01 T03430089  RH  021%=      5-min Rain = 0
KCA2 172125Z 14007KT 34/09 A2991 RMK A01 T03430088  RH  021%=      5-min Rain = 0
KCA2 172126Z 17008KT 34/09 A2991 RMK A01 T03410089  RH  021%=      5-min Rain = 0
KCA2 172127Z 17008KT 34/09 A2991 RMK A01 T03410089  RH  021%=      5-min Rain = 0
KCA2 172128Z 15008KT 34/09 A2991 RMK A01 T03420088  RH  021%=      5-min Rain = 0
KCA2 172129Z 16006KT 34/09 A2991 RMK A01 T03430090  RH  021%=      5-min Rain = 0
KCA2 172130Z 15007KT 35/09 A2991 RMK A01 T03450089  RH  021%=      5-min Rain = 0
KCA2 172131Z 14007KT 35/09 A2991 RMK A01 T03450089  RH  021%=      5-min Rain = 0
KCA2 172132Z 14004KT 34/09 A2991 RMK A01 T03440090  RH  021%=      5-min Rain = 0
KCA2 172133Z 15008KT 34/09 A2991 RMK A01 T03440090  RH  021%=      5-min Rain = 0
KCA2 172134Z 15008KT 34/09 A2991 RMK A01 T03440090  RH  021%=      5-min Rain = 0
KCA2 172135Z 16007KT 34/09 A2991 RMK A01 T03440088  RH  021%=      5-min Rain = 0
KCA2 172136Z 15008KT 34/09 A2991 RMK A01 T03430088  RH  021%=      5-min Rain = 0
KCA2 172137Z 15007KT 34/09 A2991 RMK A01 T03430089  RH  021%=      5-min Rain = 0
KCA2 172138Z 14007KT 34/09 A2991 RMK A01 T03440088  RH  021%=      5-min Rain = 0
KCA2 172139Z 15006KT 34/09 A2991 RMK A01 T03430089  RH  021%=      5-min Rain = 0
KCA2 172140Z 15008KT 34/09 A2991 RMK A01 T03440088  RH  021%=      5-min Rain = 0
KCA2 172141Z 15006KT 35/09 A2991 RMK A01 T03450088  RH  021%=      5-min Rain = 0
KCA2 172142Z 15007KT 34/09 A2991 RMK A01 T03440087  RH  021%=      5-min Rain = 0
KCA2 172143Z 14006KT 35/09 A2991 RMK A01 T03450087  RH  021%=      5-min Rain = 0
KCA2 172144Z 14008KT 35/09 A2991 RMK A01 T03460087  RH  020%=      5-min Rain = 0
KCA2 172145Z 14005KT 35/09 A2991 RMK A01 T03460085  RH  020%=      5-min Rain = 0
KCA2 172146Z 14005KT 35/09 A2991 RMK A01 T03460086  RH  020%=      5-min Rain = 0
KCA2 172147Z 14005KT 35/09 A299 RMK A01 T03460085  RH  020%=      5-min Rain = 0
KCA2 172148Z 15006KT 35/08 A299 RMK A01 T03460084  RH  020%=      5-min Rain = 0
KCA2 172149Z 13006KT 35/08 A299 RMK A01 T03460084  RH  020%=      5-min Rain = 0
KCA2 172150Z 13005KT 35/08 A299 RMK A01 T03450084  RH  020%=      5-min Rain = 0
KCA2 172151Z 12005KT 35/08 A299 RMK A01 T03450084  RH  020%=      5-min Rain = 0
KCA2 172152Z 10005KT 34/08 A299 RMK A01 T03440083  RH  020%=      5-min Rain = 0
KCA2 172153Z 10003KT 34/08 A299 RMK A01 T03430083  RH  020%=      5-min Rain = 0
KCA2 172154Z 12005KT 34/08 A299 RMK A01 T03440084  RH  020%=      5-min Rain = 0
KCA2 172155Z 13006KT 35/09 A299 RMK A01 T03460087  RH  020%=      5-min Rain = 0
KCA2 172156Z 15006KT 35/09 A299 RMK A01 T03470087  RH  020%=      5-min Rain = 0
KCA2 172157Z 16007KT 35/09 A299 RMK A01 T03470087  RH  020%=      5-min Rain = 0
KCA2 172158Z 16008KT 35/09 A299 RMK A01 T03480085  RH  020%=      5-min Rain = 0
KCA2 172159Z 16008KT 35/09 A299 RMK A01 T03470085  RH  020%=      5-min Rain = 0
KCA2 172200Z 15007KT 35/09 A299 RMK A01 T03460087  RH  020%=      5-min Rain = 0
KCA2 172201Z 14007KT 35/09 A299 RMK A01 T03470087  RH  020%=      5-min Rain = 0
KCA2 172202Z 14006KT 35/09 A299 RMK A01 T03470087  RH  020%=      5-min Rain = 0
KCA2 172203Z 14007KT 35/09 A299 RMK A01 T03480085  RH  020%=      5-min Rain = 0
KCA2 172204Z 14006KT 35/08 A299 RMK A01 T03470083  RH  020%=      5-min Rain = 0
KCA2 172205Z 15006KT 35/08 A299 RMK A01 T03450084  RH  020%=      5-min Rain = 0
KCA2 172206Z 15007KT 35/08 A299 RMK A01 T03460084  RH  020%=      5-min Rain = 0
KCA2 172207Z 14006KT 35/08 A299 RMK A01 T03470084  RH  020%=      5-min Rain = 0
KCA2 172208Z 14007KT 35/08 A299 RMK A01 T03480084  RH  020%=      5-min Rain = 0
KCA2 172209Z 15006KT 35/08 A299 RMK A01 T03480083  RH  020%=      5-min Rain = 0
KCA2 172210Z 14004KT 35/08 A299 RMK A01 T03480082  RH  020%=      5-min Rain = 0
KCA2 172211Z 13005KT 35/08 A299 RMK A01 T03480083  RH  020%=      5-min Rain = 0
KCA2 172212Z 14003KT 35/09 A2989 RMK A01 T03480085  RH  020%=      5-min Rain = 0
KCA2 172213Z 11004KT 35/09 A2989 RMK A01 T03480085  RH  020%=      5-min Rain = 0
KCA2 172214Z 12004KT 35/09 A2989 RMK A01 T03490086  RH  020%=      5-min Rain = 0
KCA2 172215Z 16005KT 35/09 A2989 RMK A01 T03500087  RH  020%=      5-min Rain = 0
KCA2 172216Z 16007KT 35/09 A2989 RMK A01 T03510088  RH  020%=      5-min Rain = 0
KCA2 172217Z 16007KT 35/09 A2989 RMK A01 T03500089  RH  020%=      5-min Rain = 0
KCA2 172218Z 16007KT 35/09 A2989 RMK A01 T03500088  RH  020%=      5-min Rain = 0
KCA2 172219Z 14007KT 35/09 A2989 RMK A01 T03500087  RH  020%=      5-min Rain = 0
KCA2 172220Z 16006KT 35/09 A2989 RMK A01 T03490087  RH  020%=      5-min Rain = 0
KCA2 172221Z 15007KT 35/09 A2989 RMK A01 T03490086  RH  020%=      5-min Rain = 0
KCA2 172222Z 15007KT 35/09 A2989 RMK A01 T03490085  RH  020%=      5-min Rain = 0
KCA2 172223Z 15008KT 35/09 A2989 RMK A01 T03490086  RH  020%=      5-min Rain = 0
KCA2 172224Z 15008KT 35/09 A2989 RMK A01 T03490085  RH  020%=      5-min Rain = 0
KCA2 172225Z 15007KT 35/09 A2989 RMK A01 T03490085  RH  020%=      5-min Rain = 0
KCA2 172226Z 14009KT 35/08 A2989 RMK A01 T03490084  RH  020%=      5-min Rain = 0
KCA2 172227Z 15008KT 35/08 A2989 RMK A01 T03490083  RH  020%=      5-min Rain = 0
KCA2 172228Z 15007KT 35/08 A2989 RMK A01 T03470084  RH  020%=      5-min Rain = 0
KCA2 172229Z 16006KT 35/09 A2989 RMK A01 T03470086  RH  020%=      5-min Rain = 0
KCA2 172230Z 14006KT 35/09 A2989 RMK A01 T03470086  RH  020%=      5-min Rain = 0
KCA2 172231Z 14007KT 35/09 A2989 RMK A01 T03470085  RH  020%=      5-min Rain = 0
KCA2 172232Z 14005KT 35/09 A2989 RMK A01 T03480086  RH  020%=      5-min Rain = 0
KCA2 172233Z 13005KT 35/09 A2989 RMK A01 T03500086  RH  020%=      5-min Rain = 0
KCA2 172234Z 14005KT 35/08 A2989 RMK A01 T03500084  RH  019%=      5-min Rain = 0
KCA2 172235Z 16006KT 35/09 A2989 RMK A01 T03500085  RH  020%=      5-min Rain = 0
KCA2 172236Z 17007KT 35/09 A2989 RMK A01 T03500085  RH  020%=      5-min Rain = 0
KCA2 172237Z 17007KT 35/08 A2989 RMK A01 T03490084  RH  020%=      5-min Rain = 0
KCA2 172238Z 17006KT 35/08 A2989 RMK A01 T03480082  RH  020%=      5-min Rain = 0
KCA2 172239Z 16005KT 35/08 A2989 RMK A01 T03470082  RH  020%=      5-min Rain = 0
KCA2 172240Z 15004KT 35/08 A2989 RMK A01 T03470081  RH  020%=      5-min Rain = 0
KCA2 172241Z 17004KT 35/08 A2989 RMK A01 T03470081  RH  020%=      5-min Rain = 0
KCA2 172242Z 16004KT 35/08 A2989 RMK A01 T03480081  RH  019%=      5-min Rain = 0
KCA2 172243Z 15005KT 35/08 A2989 RMK A01 T03490080  RH  019%=      5-min Rain = 0
KCA2 172244Z 14004KT 35/08 A2989 RMK A01 T03500081  RH  019%=      5-min Rain = 0
KCA2 172245Z 14005KT 35/08 A2989 RMK A01 T03500083  RH  019%=      5-min Rain = 0
KCA2 172246Z 14005KT 35/08 A2989 RMK A01 T03500083  RH  019%=      5-min Rain = 0
KCA2 172247Z 13004KT 35/08 A2989 RMK A01 T03500082  RH  019%=      5-min Rain = 0
KCA2 172248Z 14004KT 35/08 A2988 RMK A01 T03490081  RH  019%=      5-min Rain = 0
KCA2 172249Z 15006KT 35/08 A2988 RMK A01 T03480082  RH  020%=      5-min Rain = 0
KCA2 172250Z 15006KT 35/08 A2988 RMK A01 T03480083  RH  020%=      5-min Rain = 0
KCA2 172251Z 16006KT 35/08 A2988 RMK A01 T03480082  RH  019%=      5-min Rain = 0
KCA2 172252Z 17006KT 35/08 A2988 RMK A01 T03480083  RH  020%=      5-min Rain = 0
KCA2 172253Z 15007KT 35/08 A2988 RMK A01 T03480084  RH  020%=      5-min Rain = 0
KCA2 172254Z 16007KT 35/08 A2988 RMK A01 T03480083  RH  020%=      5-min Rain = 0
KCA2 172255Z 16006KT 35/08 A2988 RMK A01 T03480083  RH  020%=      5-min Rain = 0
KCA2 172256Z 16006KT 35/08 A2988 RMK A01 T03480083  RH  020%=      5-min Rain = 0
KCA2 172257Z 16006KT 35/08 A2988 RMK A01 T03480083  RH  020%=      5-min Rain = 0
KCA2 172258Z 15006KT 35/08 A2988 RMK A01 T03470083  RH  020%=      5-min Rain = 0
KCA2 172259Z 14007KT 35/08 A2988 RMK A01 T03480081  RH  019%=      5-min Rain = 0
KCA2 172300Z 15007KT 35/08 A2988 RMK A01 T03480081  RH  019%=      5-min Rain = 0
KCA2 172301Z 14008KT 35/08 A2988 RMK A01 T03480083  RH  020%=      5-min Rain = 0
KCA2 172302Z 15007KT 35/08 A2988 RMK A01 T03480083  RH  020%=      5-min Rain = 0
KCA2 172303Z 16006KT 35/08 A2988 RMK A01 T03470083  RH  020%=      5-min Rain = 0
KCA2 172304Z 15005KT 35/08 A2988 RMK A01 T03480083  RH  020%=      5-min Rain = 0
KCA2 172305Z 16005KT 35/08 A2988 RMK A01 T03480083  RH  020%=      5-min Rain = 0
KCA2 172306Z 16006KT 35/08 A2988 RMK A01 T03490083  RH  020%=      5-min Rain = 0
KCA2 172307Z 16006KT 35/08 A2988 RMK A01 T03490082  RH  019%=      5-min Rain = 0
KCA2 172308Z 15006KT 35/08 A2988 RMK A01 T03480082  RH  020%=      5-min Rain = 0
KCA2 172309Z 15006KT 35/08 A2988 RMK A01 T03480083  RH  020%=      5-min Rain = 0
KCA2 172310Z 15006KT 35/08 A2988 RMK A01 T03470082  RH  020%=      5-min Rain = 0
KCA2 172311Z 15005KT 35/08 A2988 RMK A01 T03470081  RH  020%=      5-min Rain = 0
KCA2 172312Z 15004KT 35/08 A2988 RMK A01 T03470083  RH  020%=      5-min Rain = 0
KCA2 172313Z 16005KT 35/08 A2988 RMK A01 T03470082  RH  020%=      5-min Rain = 0
KCA2 172314Z 15005KT 35/09 A2988 RMK A01 T03470085  RH  020%=      5-min Rain = 0
KCA2 172315Z 13006KT 35/08 A2988 RMK A01 T03460084  RH  020%=      5-min Rain = 0
KCA2 172316Z 14005KT 35/08 A2988 RMK A01 T03460084  RH  020%=      5-min Rain = 0
KCA2 172317Z 14005KT 35/09 A2988 RMK A01 T03460087  RH  020%=      5-min Rain = 0
KCA2 172318Z 14006KT 35/08 A2988 RMK A01 T03460084  RH  020%=      5-min Rain = 0
KCA2 172319Z 15005KT 35/09 A2988 RMK A01 T03460085  RH  020%=      5-min Rain = 0
KCA2 172320Z 15006KT 35/09 A2988 RMK A01 T03460086  RH  020%=      5-min Rain = 0
KCA2 172321Z 15007KT 35/08 A2988 RMK A01 T03460084  RH  020%=      5-min Rain = 0
KCA2 172322Z 15007KT 35/08 A2988 RMK A01 T03460084  RH  020%=      5-min Rain = 0
KCA2 172323Z 15006KT 35/09 A2988 RMK A01 T03460085  RH  020%=      5-min Rain = 0
KCA2 172324Z 15006KT 35/08 A2988 RMK A01 T03450084  RH  020%=      5-min Rain = 0
KCA2 172325Z 15008KT 35/08 A2988 RMK A01 T03450083  RH  020%=      5-min Rain = 0
KCA2 172326Z 15008KT 35/08 A2988 RMK A01 T03450081  RH  020%=      5-min Rain = 0
KCA2 172327Z 15006KT 35/08 A2988 RMK A01 T03450080  RH  020%=      5-min Rain = 0
KCA2 172328Z 15005KT 35/08 A2988 RMK A01 T03450080  RH  020%=      5-min Rain = 0
KCA2 172329Z 15005KT 34/08 A2988 RMK A01 T03440082  RH  020%=      5-min Rain = 0
KCA2 172330Z 15006KT 34/08 A2988 RMK A01 T03440082  RH  020%=      5-min Rain = 0
KCA2 172331Z 15005KT 34/08 A2988 RMK A01 T03440084  RH  020%=      5-min Rain = 0
KCA2 172332Z 15004KT 34/08 A2988 RMK A01 T03440084  RH  020%=      5-min Rain = 0
KCA2 172333Z 15005KT 34/09 A2988 RMK A01 T03440085  RH  020%=      5-min Rain = 0
KCA2 172334Z 15005KT 34/08 A2988 RMK A01 T03430084  RH  020%=      5-min Rain = 0
KCA2 172335Z 15005KT 34/08 A2988 RMK A01 T03430084  RH  020%=      5-min Rain = 0
KCA2 172336Z 15004KT 34/09 A2988 RMK A01 T03430085  RH  021%=      5-min Rain = 0
KCA2 172337Z 15004KT 34/09 A2988 RMK A01 T03430088  RH  021%=      5-min Rain = 0
KCA2 172338Z 15005KT 34/09 A2988 RMK A01 T03420086  RH  021%=      5-min Rain = 0
KCA2 172339Z 14005KT 34/08 A2988 RMK A01 T03420084  RH  020%=      5-min Rain = 0
KCA2 172340Z 14006KT 34/09 A2988 RMK A01 T03420085  RH  021%=      5-min Rain = 0
KCA2 172341Z 15006KT 34/09 A2988 RMK A01 T03420085  RH  021%=      5-min Rain = 0
KCA2 172342Z 14006KT 34/08 A2988 RMK A01 T03410084  RH  021%=      5-min Rain = 0
KCA2 172343Z 14005KT 34/08 A2988 RMK A01 T03400084  RH  021%=      5-min Rain = 0
KCA2 172344Z 15005KT 34/09 A2988 RMK A01 T03400085  RH  021%=      5-min Rain = 0
KCA2 172345Z 15005KT 34/09 A2988 RMK A01 T03400085  RH  021%=      5-min Rain = 0
KCA2 172346Z 15005KT 34/09 A2988 RMK A01 T03390085  RH  021%=      5-min Rain = 0
KCA2 172347Z 15006KT 34/09 A2988 RMK A01 T03390085  RH  021%=      5-min Rain = 0
KCA2 172348Z 15005KT 34/08 A2988 RMK A01 T03390083  RH  021%=      5-min Rain = 0
KCA2 172349Z 14005KT 34/08 A2988 RMK A01 T03390083  RH  021%=      5-min Rain = 0
KCA2 172350Z 14005KT 34/08 A2988 RMK A01 T03390084  RH  021%=      5-min Rain = 0
KCA2 172351Z 13006KT 34/08 A2988 RMK A01 T03380083  RH  021%=      5-min Rain = 0
KCA2 172352Z 14006KT 34/08 A2988 RMK A01 T03370082  RH  021%=      5-min Rain = 0
KCA2 172353Z 14005KT 34/08 A2988 RMK A01 T03370082  RH  021%=      5-min Rain = 0
KCA2 172354Z 14004KT 34/08 A2988 RMK A01 T03370083  RH  021%=      5-min Rain = 0
KCA2 172355Z 15005KT 34/08 A2988 RMK A01 T03360083  RH  021%=      5-min Rain = 0
KCA2 172356Z 15005KT 34/08 A2988 RMK A01 T03350084  RH  021%=      5-min Rain = 0
KCA2 172357Z 14005KT 33/08 A2988 RMK A01 T03340083  RH  021%=      5-min Rain = 0
KCA2 172358Z 14005KT 33/08 A2988 RMK A01 T03330083  RH  021%=      5-min Rain = 0
KCA2 172359Z 14004KT 33/08 A2988 RMK A01 T03320083  RH  022%=      5-min Rain = 0
KCA2 180000Z 14005KT 33/08 A2988 RMK A01 T03320084  RH  022%=      5-min Rain = 0
KCA2 180001Z 14005KT 33/08 A2988 RMK A01 T03310084  RH  022%=      5-min Rain = 0
KCA2 180002Z 14005KT 33/08 A2988 RMK A01 T03300084  RH  022%=      5-min Rain = 0
KCA2 180003Z 14005KT 33/08 A2988 RMK A01 T03290084  RH  022%=      5-min Rain = 0
KCA2 180004Z 14005KT 33/08 A2988 RMK A01 T03280084  RH  022%=      5-min Rain = 0
KCA2 180005Z 14005KT 33/08 A2988 RMK A01 T03280084  RH  022%=      5-min Rain = 0
KCA2 180006Z 15005KT 33/08 A2988 RMK A01 T03270084  RH  022%=      5-min Rain = 0
KCA2 180007Z 15006KT 33/08 A2988 RMK A01 T03260083  RH  022%=      5-min Rain = 0
KCA2 180008Z 14005KT 33/08 A2988 RMK A01 T03260082  RH  022%=      5-min Rain = 0
KCA2 180009Z 14005KT 33/08 A2988 RMK A01 T03260082  RH  022%=      5-min Rain = 0
KCA2 180010Z 13005KT 33/08 A2988 RMK A01 T03250082  RH  022%=      5-min Rain = 0
KCA2 180011Z 13005KT 32/08 A2988 RMK A01 T03240082  RH  022%=      5-min Rain = 0
KCA2 180012Z 13005KT 32/08 A2988 RMK A01 T03240082  RH  022%=      5-min Rain = 0
KCA2 180013Z 13006KT 32/08 A2988 RMK A01 T03230081  RH  022%=      5-min Rain = 0
KCA2 180014Z 13006KT 32/08 A2988 RMK A01 T03230081  RH  022%=      5-min Rain = 0
KCA2 180015Z 13005KT 32/08 A2988 RMK A01 T03230081  RH  022%=      5-min Rain = 0
KCA2 180016Z 13005KT 32/08 A2988 RMK A01 T03230080  RH  022%=      5-min Rain = 0
KCA2 180017Z 14005KT 32/08 A2988 RMK A01 T03230080  RH  022%=      5-min Rain = 0
KCA2 180018Z 14005KT 32/08 A2988 RMK A01 T03220081  RH  022%=      5-min Rain = 0
KCA2 180019Z 14005KT 32/08 A2988 RMK A01 T03210080  RH  022%=      5-min Rain = 0
KCA2 180020Z 14005KT 32/08 A2988 RMK A01 T03210079  RH  022%=      5-min Rain = 0
KCA2 180021Z 14005KT 32/08 A2988 RMK A01 T03200078  RH  022%=      5-min Rain = 0
KCA2 180022Z 14005KT 32/08 A2988 RMK A01 T03200078  RH  022%=      5-min Rain = 0
KCA2 180023Z 15005KT 32/08 A2988 RMK A01 T03200079  RH  022%=      5-min Rain = 0
KCA2 180024Z 15005KT 32/08 A2988 RMK A01 T03190078  RH  022%=      5-min Rain = 0
KCA2 180025Z 16003KT 32/08 A2988 RMK A01 T03180078  RH  023%=      5-min Rain = 0
KCA2 180026Z 18003KT 32/08 A2988 RMK A01 T03170084  RH  023%=      5-min Rain = 0
KCA2 180027Z 17003KT 32/09 A2988 RMK A01 T03150086  RH  024%=      5-min Rain = 0
KCA2 180028Z 16004KT 31/09 A2988 RMK A01 T03130086  RH  025%=      5-min Rain = 0
KCA2 180029Z 16004KT 31/09 A2988 RMK A01 T03110085  RH  025%=      5-min Rain = 0
KCA2 180030Z 16004KT 31/09 A2988 RMK A01 T03100085  RH  025%=      5-min Rain = 0
KCA2 180031Z 17004KT 31/08 A2988 RMK A01 T03100084  RH  024%=      5-min Rain = 0
KCA2 180032Z 18004KT 31/08 A2988 RMK A01 T03100084  RH  024%=      5-min Rain = 0
KCA2 180033Z 18004KT 31/08 A2988 RMK A01 T03100083  RH  024%=      5-min Rain = 0
KCA2 180034Z 18004KT 31/08 A2988 RMK A01 T03100083  RH  024%=      5-min Rain = 0
KCA2 180035Z 18005KT 31/08 A2988 RMK A01 T03100083  RH  024%=      5-min Rain = 0
KCA2 180036Z 17004KT 31/08 A2988 RMK A01 T03090082  RH  024%=      5-min Rain = 0
KCA2 180037Z 18004KT 31/08 A2988 RMK A01 T03090081  RH  024%=      5-min Rain = 0
KCA2 180038Z 19004KT 31/08 A2988 RMK A01 T03090080  RH  024%=      5-min Rain = 0
KCA2 180039Z 19004KT 31/08 A2988 RMK A01 T03100079  RH  024%=      5-min Rain = 0
KCA2 180040Z 18003KT 31/08 A2988 RMK A01 T03100078  RH  023%=      5-min Rain = 0
KCA2 180041Z 19003KT 31/08 A2988 RMK A01 T03110078  RH  023%=      5-min Rain = 0
KCA2 180042Z 18003KT 31/08 A2988 RMK A01 T03120078  RH  023%=      5-min Rain = 0
KCA2 180043Z 18003KT 31/08 A2988 RMK A01 T03120078  RH  023%=      5-min Rain = 0
KCA2 180044Z 18003KT 31/08 A2988 RMK A01 T03110078  RH  023%=      5-min Rain = 0
KCA2 180045Z 20003KT 31/08 A2988 RMK A01 T03110077  RH  023%=      5-min Rain = 0
KCA2 180046Z 18003KT 31/08 A2988 RMK A01 T03110077  RH  023%=      5-min Rain = 0
KCA2 180047Z 19003KT 31/08 A2988 RMK A01 T03110076  RH  023%=      5-min Rain = 0
KCA2 180048Z 20002KT 31/08 A2988 RMK A01 T03110076  RH  023%=      5-min Rain = 0
KCA2 180049Z 20003KT 31/08 A2988 RMK A01 T03110077  RH  023%=      5-min Rain = 0
KCA2 180050Z 18003KT 31/08 A2988 RMK A01 T03100077  RH  023%=      5-min Rain = 0
KCA2 180051Z 18003KT 31/08 A2988 RMK A01 T03080076  RH  023%=      5-min Rain = 0
KCA2 180052Z 19002KT 31/08 A2988 RMK A01 T03080075  RH  023%=      5-min Rain = 0
KCA2 180053Z 20003KT 31/07 A2988 RMK A01 T03090074  RH  023%=      5-min Rain = 0
KCA2 180054Z 20003KT 31/07 A2988 RMK A01 T03100074  RH  023%=      5-min Rain = 0
KCA2 180055Z 19002KT 31/07 A2988 RMK A01 T03100074  RH  023%=      5-min Rain = 0
KCA2 180056Z 18002KT 31/07 A2989 RMK A01 T03110074  RH  023%=      5-min Rain = 0
KCA2 180057Z 20002KT 31/07 A2989 RMK A01 T03110074  RH  023%=      5-min Rain = 0
KCA2 180058Z 20002KT 31/07 A2989 RMK A01 T03100074  RH  023%=      5-min Rain = 0
KCA2 180059Z 20001KT 31/07 A2989 RMK A01 T03100074  RH  023%=      5-min Rain = 0
KCA2 180100Z 19001KT 31/07 A2989 RMK A01 T03100074  RH  023%=      5-min Rain = 0
KCA2 180101Z 20001KT 31/07 A2989 RMK A01 T03100074  RH  023%=      5-min Rain = 0
KCA2 180102Z 17001KT 31/07 A2989 RMK A01 T03100074  RH  023%=      5-min Rain = 0
KCA2 180103Z 17002KT 31/07 A2989 RMK A01 T03090073  RH  023%=      5-min Rain = 0
KCA2 180104Z 16002KT 31/07 A2989 RMK A01 T03080073  RH  023%=      5-min Rain = 0
KCA2 180105Z 16002KT 31/07 A2989 RMK A01 T03080073  RH  023%=      5-min Rain = 0
KCA2 180106Z 18001KT 31/07 A2989 RMK A01 T03070073  RH  023%=      5-min Rain = 0
KCA2 180107Z 18002KT 31/07 A2989 RMK A01 T03070073  RH  023%=      5-min Rain = 0
KCA2 180108Z 19002KT 31/07 A2989 RMK A01 T03060073  RH  023%=      5-min Rain = 0
KCA2 180109Z 19001KT 31/07 A2989 RMK A01 T03060073  RH  023%=      5-min Rain = 0
KCA2 180110Z 19002KT 31/07 A2989 RMK A01 T03050073  RH  023%=      5-min Rain = 0
KCA2 180111Z 21001KT 30/07 A2989 RMK A01 T03040073  RH  024%=      5-min Rain = 0
KCA2 180112Z 20001KT 30/07 A2989 RMK A01 T03030074  RH  024%=      5-min Rain = 0
KCA2 180113Z 19001KT 30/07 A2989 RMK A01 T03030074  RH  024%=      5-min Rain = 0
KCA2 180114Z 19001KT 30/07 A2989 RMK A01 T03030074  RH  024%=      5-min Rain = 0
KCA2 180115Z 19002KT 30/07 A2989 RMK A01 T03030073  RH  024%=      5-min Rain = 0
KCA2 180116Z 19001KT 30/07 A2989 RMK A01 T03020073  RH  024%=      5-min Rain = 0
KCA2 180117Z 18002KT 30/07 A2989 RMK A01 T03020073  RH  024%=      5-min Rain = 0
KCA2 180118Z 19002KT 30/07 A2989 RMK A01 T03020072  RH  024%=      5-min Rain = 0
KCA2 180119Z 18002KT 30/07 A2989 RMK A01 T03020073  RH  024%=      5-min Rain = 0
KCA2 180120Z 19001KT 30/07 A2989 RMK A01 T03010072  RH  024%=      5-min Rain = 0
KCA2 180121Z 19001KT 30/07 A2989 RMK A01 T03010073  RH  024%=      5-min Rain = 0
KCA2 180122Z 18002KT 30/07 A299 RMK A01 T03010073  RH  024%=      5-min Rain = 0
KCA2 180123Z 17001KT 30/07 A299 RMK A01 T03010072  RH  024%=      5-min Rain = 0
KCA2 180124Z 18002KT 30/07 A299 RMK A01 T03010072  RH  024%=      5-min Rain = 0
KCA2 180125Z 17002KT 30/07 A299 RMK A01 T03020072  RH  024%=      5-min Rain = 0
KCA2 180126Z 17002KT 30/07 A299 RMK A01 T03020072  RH  024%=      5-min Rain = 0
KCA2 180127Z 18002KT 30/07 A299 RMK A01 T03020073  RH  024%=      5-min Rain = 0
KCA2 180128Z 18002KT 30/07 A299 RMK A01 T03020073  RH  024%=      5-min Rain = 0
KCA2 180129Z 17002KT 30/07 A299 RMK A01 T03020073  RH  024%=      5-min Rain = 0
KCA2 180130Z 18002KT 30/07 A299 RMK A01 T03020073  RH  024%=      5-min Rain = 0
KCA2 180131Z 18003KT 30/07 A299 RMK A01 T03030073  RH  024%=      5-min Rain = 0
KCA2 180132Z 15002KT 30/07 A299 RMK A01 T03030073  RH  024%=      5-min Rain = 0
KCA2 180133Z 15003KT 30/07 A299 RMK A01 T03030072  RH  024%=      5-min Rain = 0
KCA2 180134Z 15003KT 30/07 A299 RMK A01 T03030072  RH  024%=      5-min Rain = 0
KCA2 180135Z 14002KT 30/07 A299 RMK A01 T03030073  RH  024%=      5-min Rain = 0
KCA2 180136Z 14003KT 30/07 A299 RMK A01 T03040073  RH  024%=      5-min Rain = 0
KCA2 180137Z 14004KT 30/07 A299 RMK A01 T03040073  RH  024%=      5-min Rain = 0
KCA2 180138Z 14005KT 30/07 A299 RMK A01 T03020073  RH  024%=      5-min Rain = 0
KCA2 180139Z 14005KT 30/07 A299 RMK A01 T03010073  RH  024%=      5-min Rain = 0
KCA2 180140Z 14006KT 30/07 A299 RMK A01 T03000073  RH  024%=      5-min Rain = 0
KCA2 180141Z 14006KT 30/07 A299 RMK A01 T02990073  RH  024%=      5-min Rain = 0
KCA2 180142Z 14006KT 30/07 A299 RMK A01 T02980073  RH  024%=      5-min Rain = 0
KCA2 180143Z 14006KT 30/07 A299 RMK A01 T02960073  RH  025%=      5-min Rain = 0
KCA2 180144Z 14006KT 30/07 A299 RMK A01 T02950073  RH  025%=      5-min Rain = 0
KCA2 180145Z 14007KT 29/07 A299 RMK A01 T02930073  RH  025%=      5-min Rain = 0
KCA2 180146Z 14007KT 29/07 A299 RMK A01 T02920073  RH  025%=      5-min Rain = 0
KCA2 180147Z 14007KT 29/07 A299 RMK A01 T02910074  RH  025%=      5-min Rain = 0
KCA2 180148Z 14008KT 29/07 A299 RMK A01 T02910074  RH  026%=      5-min Rain = 0
KCA2 180149Z 14008KT 29/07 A299 RMK A01 T02900074  RH  026%=      5-min Rain = 0
KCA2 180150Z 14008KT 29/08 A299 RMK A01 T02900075  RH  026%=      5-min Rain = 0
KCA2 180151Z 14008KT 29/08 A299 RMK A01 T02910075  RH  026%=      5-min Rain = 0
KCA2 180152Z 14008KT 29/08 A299 RMK A01 T02910075  RH  026%=      5-min Rain = 0
KCA2 180153Z 14008KT 29/08 A299 RMK A01 T02920075  RH  026%=      5-min Rain = 0
KCA2 180154Z 14008KT 29/08 A299 RMK A01 T02920075  RH  026%=      5-min Rain = 0
KCA2 180155Z 14008KT 29/08 A299 RMK A01 T02920075  RH  026%=      5-min Rain = 0
KCA2 180156Z 14008KT 29/08 A299 RMK A01 T02930075  RH  025%=      5-min Rain = 0
KCA2 180157Z 14008KT 29/08 A299 RMK A01 T02940075  RH  025%=      5-min Rain = 0
KCA2 180158Z 14007KT 29/08 A299 RMK A01 T02940075  RH  025%=      5-min Rain = 0
KCA2 180159Z 14008KT 29/08 A299 RMK A01 T02940075  RH  025%=      5-min Rain = 0
KCA2 180200Z 14008KT 29/08 A299 RMK A01 T02940075  RH  025%=      5-min Rain = 0
KCA2 180201Z 13008KT 29/08 A2991 RMK A01 T02940076  RH  025%=      5-min Rain = 0
KCA2 180202Z 13008KT 29/08 A2991 RMK A01 T02940076  RH  025%=      5-min Rain = 0
KCA2 180203Z 13007KT 30/08 A2991 RMK A01 T02950076  RH  025%=      5-min Rain = 0
KCA2 180204Z 13007KT 29/08 A2991 RMK A01 T02940076  RH  025%=      5-min Rain = 0
KCA2 180205Z 13007KT 29/08 A2991 RMK A01 T02940076  RH  025%=      5-min Rain = 0
KCA2 180206Z 13007KT 29/08 A2991 RMK A01 T02930076  RH  026%=      5-min Rain = 0
KCA2 180207Z 13006KT 29/08 A2991 RMK A01 T02930076  RH  026%=      5-min Rain = 0
KCA2 180208Z 13006KT 29/08 A2991 RMK A01 T02930076  RH  026%=      5-min Rain = 0
KCA2 180209Z 13005KT 29/08 A2991 RMK A01 T02930076  RH  026%=      5-min Rain = 0
KCA2 180210Z 13005KT 29/08 A2991 RMK A01 T02930076  RH  026%=      5-min Rain = 0
KCA2 180211Z 13006KT 29/08 A2991 RMK A01 T02920076  RH  026%=      5-min Rain = 0
KCA2 180212Z 13006KT 29/08 A2991 RMK A01 T02920076  RH  026%=      5-min Rain = 0
KCA2 180213Z 13006KT 29/08 A2991 RMK A01 T02920077  RH  026%=      5-min Rain = 0
KCA2 180214Z 13006KT 29/08 A2991 RMK A01 T02920077  RH  026%=      5-min Rain = 0
KCA2 180215Z 13006KT 29/08 A2991 RMK A01 T02920077  RH  026%=      5-min Rain = 0
KCA2 180216Z 13007KT 29/08 A2991 RMK A01 T02910077  RH  026%=      5-min Rain = 0
KCA2 180217Z 14006KT 29/08 A2991 RMK A01 T02910077  RH  026%=      5-min Rain = 0
KCA2 180218Z 14007KT 29/08 A2991 RMK A01 T02900077  RH  026%=      5-min Rain = 0
KCA2 180219Z 14007KT 29/08 A2991 RMK A01 T02890078  RH  026%=      5-min Rain = 0
KCA2 180220Z 14007KT 29/08 A299 RMK A01 T02890078  RH  027%=      5-min Rain = 0
KCA2 180221Z 14008KT 29/08 A2991 RMK A01 T02880078  RH  027%=      5-min Rain = 0
KCA2 180222Z 14008KT 29/08 A299 RMK A01 T02870078  RH  027%=      5-min Rain = 0
KCA2 180223Z 14007KT 29/08 A2991 RMK A01 T02870078  RH  027%=      5-min Rain = 0
KCA2 180224Z 14008KT 29/08 A2991 RMK A01 T02870078  RH  027%=      5-min Rain = 0
KCA2 180225Z 14006KT 29/08 A2991 RMK A01 T02870078  RH  027%=      5-min Rain = 0
KCA2 180226Z 14006KT 29/08 A2991 RMK A01 T02880078  RH  027%=      5-min Rain = 0
KCA2 180227Z 14006KT 29/08 A2991 RMK A01 T02860078  RH  027%=      5-min Rain = 0
KCA2 180228Z 14006KT 29/08 A2991 RMK A01 T02850078  RH  027%=      5-min Rain = 0
KCA2 180229Z 14006KT 28/08 A2991 RMK A01 T02840078  RH  027%=      5-min Rain = 0
KCA2 180230Z 14007KT 28/08 A2991 RMK A01 T02830078  RH  027%=      5-min Rain = 0
KCA2 180231Z 14006KT 28/08 A2991 RMK A01 T02830078  RH  027%=      5-min Rain = 0
KCA2 180232Z 13006KT 28/08 A2991 RMK A01 T02830078  RH  027%=      5-min Rain = 0
KCA2 180233Z 13006KT 28/08 A2991 RMK A01 T02840078  RH  027%=      5-min Rain = 0
KCA2 180234Z 12006KT 28/08 A2991 RMK A01 T02840078  RH  027%=      5-min Rain = 0
KCA2 180235Z 12006KT 28/08 A2991 RMK A01 T02840078  RH  027%=      5-min Rain = 0
KCA2 180236Z 12006KT 28/08 A2991 RMK A01 T02840078  RH  027%=      5-min Rain = 0
KCA2 180237Z 13005KT 29/08 A2991 RMK A01 T02850077  RH  027%=      5-min Rain = 0
KCA2 180238Z 13005KT 29/08 A2991 RMK A01 T02860077  RH  027%=      5-min Rain = 0
KCA2 180239Z 13005KT 29/08 A2991 RMK A01 T02870077  RH  027%=      5-min Rain = 0
KCA2 180240Z 14005KT 29/08 A2991 RMK A01 T02870077  RH  027%=      5-min Rain = 0
KCA2 180241Z 13005KT 29/08 A2991 RMK A01 T02870077  RH  027%=      5-min Rain = 0
KCA2 180242Z 14003KT 29/08 A2991 RMK A01 T02880077  RH  027%=      5-min Rain = 0
KCA2 180243Z 14004KT 29/08 A2991 RMK A01 T02880077  RH  027%=      5-min Rain = 0
KCA2 180244Z 14003KT 29/08 A2991 RMK A01 T02880077  RH  027%=      5-min Rain = 0
KCA2 180245Z 15003KT 29/08 A2991 RMK A01 T02880077  RH  027%=      5-min Rain = 0
KCA2 180246Z 18003KT 29/08 A2991 RMK A01 T02880077  RH  027%=      5-min Rain = 0
KCA2 180247Z 18003KT 29/08 A2991 RMK A01 T02870077  RH  027%=      5-min Rain = 0
KCA2 180248Z 17003KT 29/08 A2991 RMK A01 T02860077  RH  027%=      5-min Rain = 0
KCA2 180249Z 15004KT 29/08 A2991 RMK A01 T02850077  RH  027%=      5-min Rain = 0
KCA2 180250Z 15004KT 28/08 A2991 RMK A01 T02840077  RH  027%=      5-min Rain = 0
KCA2 180251Z 14004KT 29/08 A2991 RMK A01 T02850076  RH  027%=      5-min Rain = 0
KCA2 180252Z 15003KT 29/08 A2991 RMK A01 T02850077  RH  027%=      5-min Rain = 0
KCA2 180253Z 16003KT 29/08 A2991 RMK A01 T02850077  RH  027%=      5-min Rain = 0
KCA2 180254Z 16003KT 29/08 A2991 RMK A01 T02850077  RH  027%=      5-min Rain = 0
KCA2 180255Z 16004KT 28/08 A2991 RMK A01 T02840078  RH  027%=      5-min Rain = 0
KCA2 180256Z 15004KT 28/08 A2991 RMK A01 T02820077  RH  028%=      5-min Rain = 0
KCA2 180257Z 14004KT 28/08 A2991 RMK A01 T02810078  RH  028%=      5-min Rain = 0
KCA2 180258Z 14004KT 28/08 A2991 RMK A01 T02790078  RH  028%=      5-min Rain = 0
KCA2 180259Z 14004KT 28/08 A2991 RMK A01 T02780077  RH  028%=      5-min Rain = 0
KCA2 180300Z 14005KT 28/08 A2991 RMK A01 T02770077  RH  028%=      5-min Rain = 0
KCA2 180301Z 15004KT 28/08 A2991 RMK A01 T02760076  RH  028%=      5-min Rain = 0
KCA2 180302Z 15005KT 28/08 A2991 RMK A01 T02760076  RH  028%=      5-min Rain = 0
KCA2 180303Z 15005KT 28/08 A2991 RMK A01 T02750076  RH  028%=      5-min Rain = 0
KCA2 180304Z 16005KT 28/08 A2991 RMK A01 T02750076  RH  028%=      5-min Rain = 0
KCA2 180305Z 15005KT 28/08 A2991 RMK A01 T02750076  RH  028%=      5-min Rain = 0
KCA2 180306Z 15005KT 28/08 A2991 RMK A01 T02750075  RH  028%=      5-min Rain = 0
KCA2 180307Z 16005KT 28/08 A2991 RMK A01 T02760075  RH  028%=      5-min Rain = 0
KCA2 180308Z 16005KT 28/08 A2991 RMK A01 T02770075  RH  028%=      5-min Rain = 0
KCA2 180309Z 16005KT 28/08 A2991 RMK A01 T02780075  RH  028%=      5-min Rain = 0
KCA2 180310Z 16005KT 28/08 A2991 RMK A01 T02790075  RH  028%=      5-min Rain = 0
KCA2 180311Z 17005KT 28/08 A2991 RMK A01 T02780076  RH  028%=      5-min Rain = 0
KCA2 180312Z 17005KT 28/08 A2991 RMK A01 T02770076  RH  028%=      5-min Rain = 0
KCA2 180313Z 17005KT 28/08 A2991 RMK A01 T02760076  RH  028%=      5-min Rain = 0
KCA2 180314Z 16005KT 28/08 A2991 RMK A01 T02760076  RH  028%=      5-min Rain = 0
KCA2 180315Z 16005KT 28/08 A2991 RMK A01 T02750076  RH  028%=      5-min Rain = 0
KCA2 180316Z 15006KT 28/08 A2991 RMK A01 T02750076  RH  028%=      5-min Rain = 0
KCA2 180317Z 16005KT 28/08 A2991 RMK A01 T02750076  RH  028%=      5-min Rain = 0
KCA2 180318Z 15006KT 28/08 A2991 RMK A01 T02750076  RH  028%=      5-min Rain = 0
KCA2 180319Z 15006KT 28/08 A2991 RMK A01 T02750076  RH  028%=      5-min Rain = 0
KCA2 180320Z 15006KT 28/08 A2991 RMK A01 T02750076  RH  028%=      5-min Rain = 0
KCA2 180321Z 15006KT 28/08 A2991 RMK A01 T02750076  RH  028%=      5-min Rain = 0
KCA2 180322Z 15006KT 27/08 A2991 RMK A01 T02740076  RH  028%=      5-min Rain = 0
KCA2 180323Z 15007KT 27/08 A2991 RMK A01 T02740076  RH  028%=      5-min Rain = 0
KCA2 180324Z 15006KT 27/08 A2991 RMK A01 T02740075  RH  028%=      5-min Rain = 0
KCA2 180325Z 15006KT 28/08 A2991 RMK A01 T02750075  RH  028%=      5-min Rain = 0
KCA2 180326Z 15006KT 28/08 A2991 RMK A01 T02750075  RH  028%=      5-min Rain = 0
KCA2 180327Z 15006KT 28/08 A2991 RMK A01 T02750075  RH  028%=      5-min Rain = 0
KCA2 180328Z 15006KT 28/08 A2991 RMK A01 T02750075  RH  028%=      5-min Rain = 0
KCA2 180329Z 14006KT 27/08 A2991 RMK A01 T02740075  RH  028%=      5-min Rain = 0
KCA2 180330Z 14005KT 27/08 A2991 RMK A01 T02720075  RH  029%=      5-min Rain = 0
KCA2 180331Z 15005KT 27/08 A2991 RMK A01 T02710075  RH  029%=      5-min Rain = 0
KCA2 180332Z 15005KT 27/08 A2991 RMK A01 T02690075  RH  029%=      5-min Rain = 0
KCA2 180333Z 15005KT 27/07 A2991 RMK A01 T02670074  RH  029%=      5-min Rain = 0
KCA2 180334Z 15006KT 27/07 A2991 RMK A01 T02670074  RH  030%=      5-min Rain = 0
KCA2 180335Z 15006KT 27/07 A2991 RMK A01 T02660074  RH  030%=      5-min Rain = 0
KCA2 180336Z 15006KT 27/07 A2991 RMK A01 T02660073  RH  029%=      5-min Rain = 0
KCA2 180337Z 15005KT 27/07 A2991 RMK A01 T02680073  RH  029%=      5-min Rain = 0
KCA2 180338Z 16006KT 27/07 A2991 RMK A01 T02690073  RH  029%=      5-min Rain = 0
KCA2 180339Z 16006KT 27/07 A2991 RMK A01 T02700073  RH  029%=      5-min Rain = 0
KCA2 180340Z 16006KT 27/07 A2991 RMK A01 T02710073  RH  029%=      5-min Rain = 0
KCA2 180341Z 16006KT 27/07 A2991 RMK A01 T02710074  RH  029%=      5-min Rain = 0
KCA2 180342Z 16006KT 27/07 A2991 RMK A01 T02710074  RH  029%=      5-min Rain = 0
KCA2 180343Z 16006KT 27/08 A2991 RMK A01 T02720075  RH  029%=      5-min Rain = 0
KCA2 180344Z 16006KT 27/08 A2991 RMK A01 T02720075  RH  029%=      5-min Rain = 0
KCA2 180345Z 16006KT 27/08 A2991 RMK A01 T02710075  RH  029%=      5-min Rain = 0
KCA2 180346Z 16006KT 27/07 A2991 RMK A01 T02700074  RH  029%=      5-min Rain = 0
KCA2 180347Z 17006KT 27/07 A2991 RMK A01 T02700073  RH  029%=      5-min Rain = 0
KCA2 180348Z 17006KT 27/07 A2991 RMK A01 T02690072  RH  029%=      5-min Rain = 0
KCA2 180349Z 17006KT 27/07 A2991 RMK A01 T02690072  RH  029%=      5-min Rain = 0
KCA2 180350Z 16006KT 27/07 A2991 RMK A01 T02680072  RH  029%=      5-min Rain = 0
KCA2 180351Z 15006KT 27/07 A2991 RMK A01 T02670072  RH  029%=      5-min Rain = 0
KCA2 180352Z 15006KT 27/07 A2991 RMK A01 T02670071  RH  029%=      5-min Rain = 0
KCA2 180353Z 16007KT 27/07 A2991 RMK A01 T02670071  RH  029%=      5-min Rain = 0
KCA2 180354Z 15006KT 27/07 A2991 RMK A01 T02670070  RH  029%=      5-min Rain = 0
KCA2 180355Z 16006KT 27/07 A2991 RMK A01 T02690070  RH  028%=      5-min Rain = 0
KCA2 180356Z 16005KT 27/07 A2991 RMK A01 T02700070  RH  028%=      5-min Rain = 0
KCA2 180357Z 17005KT 27/07 A2991 RMK A01 T02700070  RH  028%=      5-min Rain = 0
KCA2 180358Z 17006KT 27/07 A2991 RMK A01 T02690071  RH  028%=      5-min Rain = 0
KCA2 180359Z 18006KT 27/07 A2991 RMK A01 T02680070  RH  028%=      5-min Rain = 0
KCA2 180400Z 18006KT 27/07 A2991 RMK A01 T02670069  RH  029%=      5-min Rain = 0
KCA2 180401Z 18005KT 27/07 A2991 RMK A01 T02660069  RH  029%=      5-min Rain = 0
KCA2 180402Z 18006KT 27/07 A2991 RMK A01 T02660069  RH  029%=      5-min Rain = 0
KCA2 180403Z 18006KT 27/07 A2991 RMK A01 T02660068  RH  028%=      5-min Rain = 0
KCA2 180404Z 18006KT 27/07 A2991 RMK A01 T02660068  RH  028%=      5-min Rain = 0
KCA2 180405Z 17006KT 27/07 A2991 RMK A01 T02660068  RH  028%=      5-min Rain = 0
KCA2 180406Z 17006KT 27/07 A2991 RMK A01 T02660067  RH  028%=      5-min Rain = 0
KCA2 180407Z 17006KT 27/07 A2991 RMK A01 T02670067  RH  028%=      5-min Rain = 0
KCA2 180408Z 17005KT 27/07 A2991 RMK A01 T02680068  RH  028%=      5-min Rain = 0
KCA2 180409Z 17005KT 27/07 A2991 RMK A01 T02680067  RH  028%=      5-min Rain = 0
KCA2 180410Z 17005KT 27/07 A2991 RMK A01 T02680067  RH  028%=      5-min Rain = 0
KCA2 180411Z 16005KT 27/07 A2991 RMK A01 T02680068  RH  028%=      5-min Rain = 0
KCA2 180412Z 16005KT 27/07 A2991 RMK A01 T02670067  RH  028%=      5-min Rain = 0
KCA2 180413Z 16005KT 27/07 A2991 RMK A01 T02670067  RH  028%=      5-min Rain = 0
KCA2 180414Z 17005KT 27/07 A2991 RMK A01 T02670067  RH  028%=      5-min Rain = 0
KCA2 180415Z 17005KT 27/07 A2992 RMK A01 T02670066  RH  028%=      5-min Rain = 0
KCA2 180416Z 17005KT 27/07 A2992 RMK A01 T02670066  RH  028%=      5-min Rain = 0
KCA2 180417Z 17005KT 27/07 A2992 RMK A01 T02680066  RH  028%=      5-min Rain = 0
KCA2 180418Z 17005KT 27/07 A2992 RMK A01 T02670067  RH  028%=      5-min Rain = 0
KCA2 180419Z 18005KT 27/07 A2992 RMK A01 T02660067  RH  028%=      5-min Rain = 0
KCA2 180420Z 18006KT 26/07 A2992 RMK A01 T02640067  RH  028%=      5-min Rain = 0
KCA2 180421Z 18006KT 26/07 A2992 RMK A01 T02640067  RH  028%=      5-min Rain = 0
KCA2 180422Z 18006KT 26/07 A2992 RMK A01 T02640067  RH  029%=      5-min Rain = 0
KCA2 180423Z 18006KT 26/07 A2992 RMK A01 T02630067  RH  029%=      5-min Rain = 0
KCA2 180424Z 17006KT 26/07 A2992 RMK A01 T02620067  RH  029%=      5-min Rain = 0
KCA2 180425Z 17006KT 26/07 A2992 RMK A01 T02620067  RH  029%=      5-min Rain = 0
KCA2 180426Z 17006KT 26/07 A2992 RMK A01 T02620066  RH  029%=      5-min Rain = 0
KCA2 180427Z 17006KT 26/07 A2992 RMK A01 T02630066  RH  028%=      5-min Rain = 0
KCA2 180428Z 17005KT 26/07 A2992 RMK A01 T02640065  RH  028%=      5-min Rain = 0
KCA2 180429Z 17005KT 27/07 A2992 RMK A01 T02650065  RH  028%=      5-min Rain = 0
KCA2 180430Z 18005KT 27/07 A2992 RMK A01 T02650065  RH  028%=      5-min Rain = 0
KCA2 180431Z 18005KT 27/07 A2992 RMK A01 T02650066  RH  028%=      5-min Rain = 0
KCA2 180432Z 18005KT 26/07 A2992 RMK A01 T02640066  RH  028%=      5-min Rain = 0
KCA2 180433Z 18004KT 26/07 A2992 RMK A01 T02630066  RH  028%=      5-min Rain = 0
KCA2 180434Z 19004KT 26/07 A2992 RMK A01 T02630066  RH  028%=      5-min Rain = 0
KCA2 180435Z 19004KT 26/07 A2992 RMK A01 T02630066  RH  028%=      5-min Rain = 0
KCA2 180436Z 19004KT 26/07 A2992 RMK A01 T02630066  RH  028%=      5-min Rain = 0
KCA2 180437Z 18004KT 26/07 A2992 RMK A01 T02630065  RH  028%=      5-min Rain = 0
KCA2 180438Z 18004KT 26/07 A2992 RMK A01 T02630065  RH  028%=      5-min Rain = 0
KCA2 180439Z 18005KT 26/07 A2992 RMK A01 T02630065  RH  028%=      5-min Rain = 0
KCA2 180440Z 17005KT 26/07 A2992 RMK A01 T02630065  RH  028%=      5-min Rain = 0
KCA2 180441Z 17005KT 26/07 A2992 RMK A01 T02630065  RH  028%=      5-min Rain = 0
KCA2 180442Z 16005KT 26/06 A2992 RMK A01 T02630064  RH  028%=      5-min Rain = 0
KCA2 180443Z 16005KT 26/06 A2992 RMK A01 T02630064  RH  028%=      5-min Rain = 0
KCA2 180444Z 15005KT 26/06 A2992 RMK A01 T02620064  RH  028%=      5-min Rain = 0
KCA2 180445Z 15005KT 26/06 A2992 RMK A01 T02610064  RH  028%=      5-min Rain = 0
KCA2 180446Z 14005KT 26/06 A2992 RMK A01 T02600064  RH  029%=      5-min Rain = 0
KCA2 180447Z 14005KT 26/07 A2992 RMK A01 T02600065  RH  029%=      5-min Rain = 0
KCA2 180448Z 14005KT 26/07 A2992 RMK A01 T02580065  RH  029%=      5-min Rain = 0
KCA2 180449Z 15006KT 26/07 A2992 RMK A01 T02570065  RH  029%=      5-min Rain = 0
KCA2 180450Z 15007KT 26/07 A2992 RMK A01 T02570065  RH  029%=      5-min Rain = 0
KCA2 180451Z 15007KT 26/07 A2992 RMK A01 T02570065  RH  029%=      5-min Rain = 0
KCA2 180452Z 16007KT 26/06 A2992 RMK A01 T02570064  RH  029%=      5-min Rain = 0
KCA2 180453Z 16007KT 26/06 A2992 RMK A01 T02570064  RH  029%=      5-min Rain = 0
KCA2 180454Z 16008KT 26/06 A2992 RMK A01 T02570064  RH  029%=      5-min Rain = 0
KCA2 180455Z 16008KT 26/06 A2993 RMK A01 T02580064  RH  029%=      5-min Rain = 0
KCA2 180456Z 17008KT 26/06 A2993 RMK A01 T02600064  RH  029%=      5-min Rain = 0
KCA2 180457Z 17009KT 26/07 A2993 RMK A01 T02620065  RH  028%=      5-min Rain = 0
KCA2 180458Z 17009KT 26/07 A2993 RMK A01 T02630065  RH  028%=      5-min Rain = 0
KCA2 180459Z 17008KT 26/07 A2993 RMK A01 T02640065  RH  028%=      5-min Rain = 0

Page generated in 0.1314 seconds.